<?xml version="1.0" encoding="UTF-8" standalone="no" ?>
<gpx xmlns="http://www.topografix.com/GPX/1/1" xmlns:xsi="http://www.w3.org/2001/XMLSchema-instance" xsi:schemaLocation="http://www.topografix.com/GPX/1/1 http://www.topografix.com/GPX/1/1/gpx.xsd" version="1.1" creator="VisuGPX - https://www.visugpx.com">
  <metadata>
    <name>Séné entre mer et campagne </name>
    <desc><![CDATA[
<p>Type: Indéfini<br/>Heure de départ: 15:20 13 mai 2023<br/>Heure d'arrivée: 18:27 13 mai 2023<br/>Distance: 13,3 km (03:07)<br/>Temps déplacement: 02:56<br/>Vitesse moyenne: 4,28 km/h<br/>Vitesse moyenne mouv.: 4,53 km/h<br/>Vitesse Max.: 8,45 km/h<br/>Altitude minimale: -1 m<br/>Altitude maximale: 22 m<br/>Vitesse de montée: 100,5 m/h<br/>Vitesse de descente: 84,9 m/h<br/>Gain d'altitude: 133 m<br/>Perte d'altitude: 126 m<br/>Temps de montée: 01:19<br/>Temps de descente: 01:29<br/></p><hr align="center" width="480" style="height: 2px; width: 517px"/>]]></desc>
  </metadata>
  <wpt lat="47.61968" lon="-2.73734">
    <ele>14.3</ele>
    <name><![CDATA[]]></name>
    <type><![CDATA[Point de départ]]></type>
  </wpt>
  <wpt lat="47.61935" lon="-2.7375">
    <ele>21.67</ele>
    <name><![CDATA[]]></name>
    <desc><![CDATA[<p><br /><h3>Nom: Segment: 1</h3><br />Type: Indéfini<br/>Heure de départ: 15:20 13 mai 2023<br/>Heure d'arrivée: 18:27 13 mai 2023<br/>Distance: 13,5km (03:07)<br/>Temps déplacement: 02:49<br/>Vitesse moyenne: 4,32 km/h<br/>Vitesse moyenne mouv.: 4,78 km/h<br/>Vitesse Max.: 8,45 km/h<br/>Altitude minimale: 4 m<br/>Altitude maximale: 17 m<br/>Vitesse de montée: 83 m/h<br/>Vitesse de descente: 66,7 m/h<br/>Gain d'altitude: 86 m<br/>Perte d'altitude: 85 m<br/>Temps de montée: 01:02<br/>Temps de descente: 01:16<br/></p>]]></desc>
    <type><![CDATA[Point d'arrivée]]></type>
  </wpt>
  <trk>
    <name><![CDATA[2023-05-13 15:20:35 Entre mer et campagne ]]></name>
    <desc><![CDATA[<p>Type: Indéfini<br/>Heure de départ: 15:20 13 mai 2023<br/>Heure d'arrivée: 18:27 13 mai 2023<br/>Distance: 13,3 km (03:07)<br/>Temps déplacement: 02:56<br/>Vitesse moyenne: 4,28 km/h<br/>Vitesse moyenne mouv.: 4,53 km/h<br/>Vitesse Max.: 8,45 km/h<br/>Altitude minimale: -1 m<br/>Altitude maximale: 22 m<br/>Vitesse de montée: 100,5 m/h<br/>Vitesse de descente: 84,9 m/h<br/>Gain d'altitude: 133 m<br/>Perte d'altitude: 126 m<br/>Temps de montée: 01:19<br/>Temps de descente: 01:29<br/></p><hr align="center" width="480" style="height: 2px; width: 517px"/>]]></desc>
    <trkseg>
      <trkpt lat="47.61968" lon="-2.73734">
        <ele>14.3</ele>
        <time>2023-05-13T13:20:36.000Z</time>
      </trkpt>
      <trkpt lat="47.6196" lon="-2.7371">
        <ele>14.22</ele>
        <time>2023-05-13T13:21:28.000Z</time>
      </trkpt>
      <trkpt lat="47.6195" lon="-2.73685">
        <ele>15.34</ele>
        <time>2023-05-13T13:21:45.000Z</time>
      </trkpt>
      <trkpt lat="47.61936" lon="-2.73667">
        <ele>18.99</ele>
        <time>2023-05-13T13:22:00.000Z</time>
      </trkpt>
      <trkpt lat="47.61919" lon="-2.73677">
        <ele>22.29</ele>
        <time>2023-05-13T13:22:19.000Z</time>
      </trkpt>
      <trkpt lat="47.61901" lon="-2.73682">
        <ele>12.72</ele>
        <time>2023-05-13T13:22:43.000Z</time>
      </trkpt>
      <trkpt lat="47.61885" lon="-2.73696">
        <ele>14.79</ele>
        <time>2023-05-13T13:23:00.000Z</time>
      </trkpt>
      <trkpt lat="47.61869" lon="-2.73679">
        <ele>13.42</ele>
        <time>2023-05-13T13:23:16.000Z</time>
      </trkpt>
      <trkpt lat="47.61852" lon="-2.73669">
        <ele>15.82</ele>
        <time>2023-05-13T13:23:30.000Z</time>
      </trkpt>
      <trkpt lat="47.61834" lon="-2.73656">
        <ele>13.54</ele>
        <time>2023-05-13T13:23:44.000Z</time>
      </trkpt>
      <trkpt lat="47.61819" lon="-2.73642">
        <ele>9.68</ele>
        <time>2023-05-13T13:23:59.000Z</time>
      </trkpt>
      <trkpt lat="47.61801" lon="-2.73631">
        <ele>10.7</ele>
        <time>2023-05-13T13:24:16.000Z</time>
      </trkpt>
      <trkpt lat="47.61786" lon="-2.73617">
        <ele>12.19</ele>
        <time>2023-05-13T13:24:30.000Z</time>
      </trkpt>
      <trkpt lat="47.6177" lon="-2.73603">
        <ele>11.01</ele>
        <time>2023-05-13T13:24:44.000Z</time>
      </trkpt>
      <trkpt lat="47.61753" lon="-2.73592">
        <ele>11.64</ele>
        <time>2023-05-13T13:24:59.000Z</time>
      </trkpt>
      <trkpt lat="47.6174" lon="-2.73571">
        <ele>8.76</ele>
        <time>2023-05-13T13:25:13.000Z</time>
      </trkpt>
      <trkpt lat="47.61725" lon="-2.73552">
        <ele>10.08</ele>
        <time>2023-05-13T13:25:28.000Z</time>
      </trkpt>
      <trkpt lat="47.61708" lon="-2.73543">
        <ele>11.72</ele>
        <time>2023-05-13T13:25:42.000Z</time>
      </trkpt>
      <trkpt lat="47.61694" lon="-2.73523">
        <ele>8.8</ele>
        <time>2023-05-13T13:25:57.000Z</time>
      </trkpt>
      <trkpt lat="47.6168" lon="-2.73505">
        <ele>9.6</ele>
        <time>2023-05-13T13:26:11.000Z</time>
      </trkpt>
      <trkpt lat="47.61666" lon="-2.73486">
        <ele>4.78</ele>
        <time>2023-05-13T13:26:25.000Z</time>
      </trkpt>
      <trkpt lat="47.6165" lon="-2.73472">
        <ele>6.01</ele>
        <time>2023-05-13T13:26:52.000Z</time>
      </trkpt>
      <trkpt lat="47.61634" lon="-2.73483">
        <ele>0.8</ele>
        <time>2023-05-13T13:28:04.000Z</time>
      </trkpt>
      <trkpt lat="47.61617" lon="-2.73496">
        <ele>0.8</ele>
        <time>2023-05-13T13:28:21.000Z</time>
      </trkpt>
      <trkpt lat="47.61601" lon="-2.73512">
        <ele>-0.86</ele>
        <time>2023-05-13T13:28:39.000Z</time>
      </trkpt>
      <trkpt lat="47.61584" lon="-2.73524">
        <ele>0.64</ele>
        <time>2023-05-13T13:28:53.000Z</time>
      </trkpt>
      <trkpt lat="47.61569" lon="-2.73541">
        <ele>-2.64</ele>
        <time>2023-05-13T13:30:36.000Z</time>
      </trkpt>
      <trkpt lat="47.61552" lon="-2.73551">
        <ele>-2.05</ele>
        <time>2023-05-13T13:30:50.000Z</time>
      </trkpt>
      <trkpt lat="47.61534" lon="-2.7356">
        <ele>-1.06</ele>
        <time>2023-05-13T13:31:23.000Z</time>
      </trkpt>
      <trkpt lat="47.61516" lon="-2.73568">
        <ele>1.01</ele>
        <time>2023-05-13T13:31:37.000Z</time>
      </trkpt>
      <trkpt lat="47.61498" lon="-2.73577">
        <ele>1.2</ele>
        <time>2023-05-13T13:31:52.000Z</time>
      </trkpt>
      <trkpt lat="47.6148" lon="-2.73579">
        <ele>-0.12</ele>
        <time>2023-05-13T13:32:23.000Z</time>
      </trkpt>
      <trkpt lat="47.61461" lon="-2.73575">
        <ele>3.26</ele>
        <time>2023-05-13T13:32:41.000Z</time>
      </trkpt>
      <trkpt lat="47.61444" lon="-2.73567">
        <ele>4.7</ele>
        <time>2023-05-13T13:32:55.000Z</time>
      </trkpt>
      <trkpt lat="47.61425" lon="-2.73573">
        <ele>4.79</ele>
        <time>2023-05-13T13:33:17.000Z</time>
      </trkpt>
      <trkpt lat="47.61412" lon="-2.73592">
        <ele>4.87</ele>
        <time>2023-05-13T13:33:30.000Z</time>
      </trkpt>
      <trkpt lat="47.61402" lon="-2.73616">
        <ele>-1.49</ele>
        <time>2023-05-13T13:34:18.000Z</time>
      </trkpt>
      <trkpt lat="47.61389" lon="-2.73637">
        <ele>-0.27</ele>
        <time>2023-05-13T13:34:32.000Z</time>
      </trkpt>
      <trkpt lat="47.61389" lon="-2.73664">
        <ele>-0.15</ele>
        <time>2023-05-13T13:34:48.000Z</time>
      </trkpt>
      <trkpt lat="47.61403" lon="-2.73684">
        <ele>0.88</ele>
        <time>2023-05-13T13:35:02.000Z</time>
      </trkpt>
      <trkpt lat="47.61415" lon="-2.73706">
        <ele>1.01</ele>
        <time>2023-05-13T13:35:15.000Z</time>
      </trkpt>
      <trkpt lat="47.61411" lon="-2.73733">
        <ele>-0.76</ele>
        <time>2023-05-13T13:35:28.000Z</time>
      </trkpt>
      <trkpt lat="47.61397" lon="-2.73752">
        <ele>0.86</ele>
        <time>2023-05-13T13:35:42.000Z</time>
      </trkpt>
      <trkpt lat="47.61384" lon="-2.73773">
        <ele>2.53</ele>
        <time>2023-05-13T13:35:57.000Z</time>
      </trkpt>
      <trkpt lat="47.61371" lon="-2.73792">
        <ele>2.29</ele>
        <time>2023-05-13T13:36:11.000Z</time>
      </trkpt>
      <trkpt lat="47.61355" lon="-2.73807">
        <ele>2.19</ele>
        <time>2023-05-13T13:36:24.000Z</time>
      </trkpt>
      <trkpt lat="47.61355" lon="-2.73836">
        <ele>-2.19</ele>
        <time>2023-05-13T13:36:41.000Z</time>
      </trkpt>
      <trkpt lat="47.6136" lon="-2.73862">
        <ele>0.19</ele>
        <time>2023-05-13T13:36:55.000Z</time>
      </trkpt>
      <trkpt lat="47.61367" lon="-2.73889">
        <ele>1.13</ele>
        <time>2023-05-13T13:37:09.000Z</time>
      </trkpt>
      <trkpt lat="47.61371" lon="-2.73916">
        <ele>-0.91</ele>
        <time>2023-05-13T13:37:23.000Z</time>
      </trkpt>
      <trkpt lat="47.61373" lon="-2.73943">
        <ele>-2.39</ele>
        <time>2023-05-13T13:37:37.000Z</time>
      </trkpt>
      <trkpt lat="47.61379" lon="-2.7397">
        <ele>-2.09</ele>
        <time>2023-05-13T13:37:50.000Z</time>
      </trkpt>
      <trkpt lat="47.61382" lon="-2.73998">
        <ele>-2.43</ele>
        <time>2023-05-13T13:38:03.000Z</time>
      </trkpt>
      <trkpt lat="47.61384" lon="-2.74025">
        <ele>-1.91</ele>
        <time>2023-05-13T13:38:15.000Z</time>
      </trkpt>
      <trkpt lat="47.61387" lon="-2.74052">
        <ele>-1.43</ele>
        <time>2023-05-13T13:38:28.000Z</time>
      </trkpt>
      <trkpt lat="47.61388" lon="-2.74079">
        <ele>-1.63</ele>
        <time>2023-05-13T13:38:41.000Z</time>
      </trkpt>
      <trkpt lat="47.61387" lon="-2.74106">
        <ele>-1.49</ele>
        <time>2023-05-13T13:38:54.000Z</time>
      </trkpt>
      <trkpt lat="47.61389" lon="-2.74134">
        <ele>-2.19</ele>
        <time>2023-05-13T13:39:08.000Z</time>
      </trkpt>
      <trkpt lat="47.61391" lon="-2.74163">
        <ele>-0.65</ele>
        <time>2023-05-13T13:39:21.000Z</time>
      </trkpt>
      <trkpt lat="47.61393" lon="-2.7419">
        <ele>-0.87</ele>
        <time>2023-05-13T13:39:34.000Z</time>
      </trkpt>
      <trkpt lat="47.61393" lon="-2.74217">
        <ele>0.72</ele>
        <time>2023-05-13T13:39:47.000Z</time>
      </trkpt>
      <trkpt lat="47.61393" lon="-2.74246">
        <ele>-1.18</ele>
        <time>2023-05-13T13:40:01.000Z</time>
      </trkpt>
      <trkpt lat="47.61395" lon="-2.74274">
        <ele>-1.91</ele>
        <time>2023-05-13T13:40:14.000Z</time>
      </trkpt>
      <trkpt lat="47.61395" lon="-2.74301">
        <ele>-2.29</ele>
        <time>2023-05-13T13:40:27.000Z</time>
      </trkpt>
      <trkpt lat="47.61395" lon="-2.74329">
        <ele>-2.62</ele>
        <time>2023-05-13T13:40:41.000Z</time>
      </trkpt>
      <trkpt lat="47.61398" lon="-2.74357">
        <ele>-4.24</ele>
        <time>2023-05-13T13:40:55.000Z</time>
      </trkpt>
      <trkpt lat="47.61397" lon="-2.74384">
        <ele>-5.63</ele>
        <time>2023-05-13T13:41:08.000Z</time>
      </trkpt>
      <trkpt lat="47.61397" lon="-2.74411">
        <ele>-2.84</ele>
        <time>2023-05-13T13:42:34.000Z</time>
      </trkpt>
      <trkpt lat="47.61397" lon="-2.7444">
        <ele>-1.91</ele>
        <time>2023-05-13T13:42:52.000Z</time>
      </trkpt>
      <trkpt lat="47.61397" lon="-2.74468">
        <ele>-1.81</ele>
        <time>2023-05-13T13:43:06.000Z</time>
      </trkpt>
      <trkpt lat="47.61395" lon="-2.74495">
        <ele>-1</ele>
        <time>2023-05-13T13:43:19.000Z</time>
      </trkpt>
      <trkpt lat="47.61396" lon="-2.74521">
        <ele>1.3</ele>
        <time>2023-05-13T13:43:32.000Z</time>
      </trkpt>
      <trkpt lat="47.61395" lon="-2.7455">
        <ele>2.45</ele>
        <time>2023-05-13T13:43:46.000Z</time>
      </trkpt>
      <trkpt lat="47.61395" lon="-2.74578">
        <ele>3.55</ele>
        <time>2023-05-13T13:43:59.000Z</time>
      </trkpt>
      <trkpt lat="47.61396" lon="-2.74606">
        <ele>4.34</ele>
        <time>2023-05-13T13:44:13.000Z</time>
      </trkpt>
      <trkpt lat="47.61396" lon="-2.74635">
        <ele>3.55</ele>
        <time>2023-05-13T13:44:26.000Z</time>
      </trkpt>
      <trkpt lat="47.61397" lon="-2.74662">
        <ele>2.76</ele>
        <time>2023-05-13T13:44:40.000Z</time>
      </trkpt>
      <trkpt lat="47.61415" lon="-2.74665">
        <ele>1.53</ele>
        <time>2023-05-13T13:44:57.000Z</time>
      </trkpt>
      <trkpt lat="47.61434" lon="-2.74665">
        <ele>3.01</ele>
        <time>2023-05-13T13:45:10.000Z</time>
      </trkpt>
      <trkpt lat="47.6145" lon="-2.74681">
        <ele>3.22</ele>
        <time>2023-05-13T13:45:23.000Z</time>
      </trkpt>
      <trkpt lat="47.61466" lon="-2.74694">
        <ele>2.77</ele>
        <time>2023-05-13T13:45:37.000Z</time>
      </trkpt>
      <trkpt lat="47.6148" lon="-2.74711">
        <ele>1.94</ele>
        <time>2023-05-13T13:45:50.000Z</time>
      </trkpt>
      <trkpt lat="47.61492" lon="-2.74734">
        <ele>6.12</ele>
        <time>2023-05-13T13:46:04.000Z</time>
      </trkpt>
      <trkpt lat="47.61497" lon="-2.7476">
        <ele>3.01</ele>
        <time>2023-05-13T13:46:15.000Z</time>
      </trkpt>
      <trkpt lat="47.61502" lon="-2.74787">
        <ele>0.58</ele>
        <time>2023-05-13T13:46:32.000Z</time>
      </trkpt>
      <trkpt lat="47.61506" lon="-2.74815">
        <ele>5.81</ele>
        <time>2023-05-13T13:46:47.000Z</time>
      </trkpt>
      <trkpt lat="47.61507" lon="-2.74842">
        <ele>5.84</ele>
        <time>2023-05-13T13:47:00.000Z</time>
      </trkpt>
      <trkpt lat="47.61507" lon="-2.74869">
        <ele>8.26</ele>
        <time>2023-05-13T13:47:14.000Z</time>
      </trkpt>
      <trkpt lat="47.61508" lon="-2.74896">
        <ele>5.8</ele>
        <time>2023-05-13T13:47:28.000Z</time>
      </trkpt>
      <trkpt lat="47.61512" lon="-2.74923">
        <ele>5.54</ele>
        <time>2023-05-13T13:47:43.000Z</time>
      </trkpt>
      <trkpt lat="47.61518" lon="-2.74948">
        <ele>3.54</ele>
        <time>2023-05-13T13:47:58.000Z</time>
      </trkpt>
      <trkpt lat="47.61524" lon="-2.74974">
        <ele>6.12</ele>
        <time>2023-05-13T13:48:10.000Z</time>
      </trkpt>
      <trkpt lat="47.61531" lon="-2.74999">
        <ele>5.45</ele>
        <time>2023-05-13T13:48:22.000Z</time>
      </trkpt>
      <trkpt lat="47.61538" lon="-2.75025">
        <ele>6.09</ele>
        <time>2023-05-13T13:48:34.000Z</time>
      </trkpt>
      <trkpt lat="47.61544" lon="-2.75051">
        <ele>4.6</ele>
        <time>2023-05-13T13:48:48.000Z</time>
      </trkpt>
      <trkpt lat="47.61547" lon="-2.75078">
        <ele>5.24</ele>
        <time>2023-05-13T13:49:01.000Z</time>
      </trkpt>
      <trkpt lat="47.61536" lon="-2.751">
        <ele>4.44</ele>
        <time>2023-05-13T13:49:15.000Z</time>
      </trkpt>
      <trkpt lat="47.61525" lon="-2.75122">
        <ele>2.76</ele>
        <time>2023-05-13T13:49:32.000Z</time>
      </trkpt>
      <trkpt lat="47.61536" lon="-2.75145">
        <ele>2.58</ele>
        <time>2023-05-13T13:49:47.000Z</time>
      </trkpt>
      <trkpt lat="47.6155" lon="-2.75163">
        <ele>2.74</ele>
        <time>2023-05-13T13:50:01.000Z</time>
      </trkpt>
      <trkpt lat="47.61561" lon="-2.75184">
        <ele>5.28</ele>
        <time>2023-05-13T13:50:15.000Z</time>
      </trkpt>
      <trkpt lat="47.6157" lon="-2.75207">
        <ele>5.51</ele>
        <time>2023-05-13T13:51:08.000Z</time>
      </trkpt>
      <trkpt lat="47.61583" lon="-2.75226">
        <ele>8.89</ele>
        <time>2023-05-13T13:51:49.000Z</time>
      </trkpt>
      <trkpt lat="47.61596" lon="-2.75246">
        <ele>8.05</ele>
        <time>2023-05-13T13:52:04.000Z</time>
      </trkpt>
      <trkpt lat="47.61609" lon="-2.75267">
        <ele>8.43</ele>
        <time>2023-05-13T13:52:17.000Z</time>
      </trkpt>
      <trkpt lat="47.61626" lon="-2.75277">
        <ele>7.81</ele>
        <time>2023-05-13T13:52:33.000Z</time>
      </trkpt>
      <trkpt lat="47.61642" lon="-2.75291">
        <ele>7.01</ele>
        <time>2023-05-13T13:52:45.000Z</time>
      </trkpt>
      <trkpt lat="47.61654" lon="-2.75315">
        <ele>7.67</ele>
        <time>2023-05-13T13:52:56.000Z</time>
      </trkpt>
      <trkpt lat="47.61661" lon="-2.75342">
        <ele>2.97</ele>
        <time>2023-05-13T13:53:10.000Z</time>
      </trkpt>
      <trkpt lat="47.61669" lon="-2.75366">
        <ele>1.87</ele>
        <time>2023-05-13T13:53:25.000Z</time>
      </trkpt>
      <trkpt lat="47.61675" lon="-2.75393">
        <ele>4.27</ele>
        <time>2023-05-13T13:53:42.000Z</time>
      </trkpt>
      <trkpt lat="47.61684" lon="-2.75418">
        <ele>1.76</ele>
        <time>2023-05-13T13:53:56.000Z</time>
      </trkpt>
      <trkpt lat="47.61693" lon="-2.75442">
        <ele>0.51</ele>
        <time>2023-05-13T13:54:08.000Z</time>
      </trkpt>
      <trkpt lat="47.61698" lon="-2.7547">
        <ele>-1.55</ele>
        <time>2023-05-13T13:54:22.000Z</time>
      </trkpt>
      <trkpt lat="47.61702" lon="-2.75496">
        <ele>-4.17</ele>
        <time>2023-05-13T13:54:35.000Z</time>
      </trkpt>
      <trkpt lat="47.61704" lon="-2.75523">
        <ele>-5.99</ele>
        <time>2023-05-13T13:54:49.000Z</time>
      </trkpt>
      <trkpt lat="47.61705" lon="-2.7555">
        <ele>-2.12</ele>
        <time>2023-05-13T13:55:02.000Z</time>
      </trkpt>
      <trkpt lat="47.61713" lon="-2.75575">
        <ele>-0.87</ele>
        <time>2023-05-13T13:55:15.000Z</time>
      </trkpt>
      <trkpt lat="47.61722" lon="-2.756">
        <ele>-2.41</ele>
        <time>2023-05-13T13:55:29.000Z</time>
      </trkpt>
      <trkpt lat="47.61729" lon="-2.75625">
        <ele>0.27</ele>
        <time>2023-05-13T13:55:42.000Z</time>
      </trkpt>
      <trkpt lat="47.61737" lon="-2.7565">
        <ele>0.62</ele>
        <time>2023-05-13T13:55:56.000Z</time>
      </trkpt>
      <trkpt lat="47.61751" lon="-2.75668">
        <ele>0.62</ele>
        <time>2023-05-13T13:56:10.000Z</time>
      </trkpt>
      <trkpt lat="47.61769" lon="-2.75672">
        <ele>0.31</ele>
        <time>2023-05-13T13:56:23.000Z</time>
      </trkpt>
      <trkpt lat="47.61787" lon="-2.75674">
        <ele>-1.82</ele>
        <time>2023-05-13T13:56:39.000Z</time>
      </trkpt>
      <trkpt lat="47.61801" lon="-2.75691">
        <ele>0.75</ele>
        <time>2023-05-13T13:56:55.000Z</time>
      </trkpt>
      <trkpt lat="47.61809" lon="-2.75716">
        <ele>2</ele>
        <time>2023-05-13T13:57:08.000Z</time>
      </trkpt>
      <trkpt lat="47.61819" lon="-2.75739">
        <ele>5.55</ele>
        <time>2023-05-13T13:57:26.000Z</time>
      </trkpt>
      <trkpt lat="47.61827" lon="-2.75765">
        <ele>6.95</ele>
        <time>2023-05-13T13:57:42.000Z</time>
      </trkpt>
      <trkpt lat="47.61835" lon="-2.75789">
        <ele>6.73</ele>
        <time>2023-05-13T13:57:54.000Z</time>
      </trkpt>
      <trkpt lat="47.61844" lon="-2.75813">
        <ele>5.7</ele>
        <time>2023-05-13T13:58:06.000Z</time>
      </trkpt>
      <trkpt lat="47.61853" lon="-2.75839">
        <ele>4.78</ele>
        <time>2023-05-13T13:58:20.000Z</time>
      </trkpt>
      <trkpt lat="47.61861" lon="-2.75864">
        <ele>4.68</ele>
        <time>2023-05-13T13:58:33.000Z</time>
      </trkpt>
      <trkpt lat="47.61864" lon="-2.75892">
        <ele>5.42</ele>
        <time>2023-05-13T13:58:46.000Z</time>
      </trkpt>
      <trkpt lat="47.61861" lon="-2.75919">
        <ele>6.06</ele>
        <time>2023-05-13T13:58:58.000Z</time>
      </trkpt>
      <trkpt lat="47.61859" lon="-2.75946">
        <ele>8.35</ele>
        <time>2023-05-13T13:59:12.000Z</time>
      </trkpt>
      <trkpt lat="47.61866" lon="-2.75972">
        <ele>8.87</ele>
        <time>2023-05-13T13:59:27.000Z</time>
      </trkpt>
      <trkpt lat="47.61869" lon="-2.75999">
        <ele>7.06</ele>
        <time>2023-05-13T13:59:57.000Z</time>
      </trkpt>
      <trkpt lat="47.61874" lon="-2.76026">
        <ele>9.05</ele>
        <time>2023-05-13T14:00:12.000Z</time>
      </trkpt>
      <trkpt lat="47.61877" lon="-2.76054">
        <ele>8.1</ele>
        <time>2023-05-13T14:00:28.000Z</time>
      </trkpt>
      <trkpt lat="47.61879" lon="-2.76082">
        <ele>4.08</ele>
        <time>2023-05-13T14:00:45.000Z</time>
      </trkpt>
      <trkpt lat="47.61882" lon="-2.76109">
        <ele>0.78</ele>
        <time>2023-05-13T14:00:59.000Z</time>
      </trkpt>
      <trkpt lat="47.61888" lon="-2.76136">
        <ele>2.66</ele>
        <time>2023-05-13T14:01:38.000Z</time>
      </trkpt>
      <trkpt lat="47.6189" lon="-2.76164">
        <ele>3.96</ele>
        <time>2023-05-13T14:01:51.000Z</time>
      </trkpt>
      <trkpt lat="47.61894" lon="-2.76191">
        <ele>4.01</ele>
        <time>2023-05-13T14:02:06.000Z</time>
      </trkpt>
      <trkpt lat="47.61902" lon="-2.76216">
        <ele>2.3</ele>
        <time>2023-05-13T14:02:21.000Z</time>
      </trkpt>
      <trkpt lat="47.61912" lon="-2.7624">
        <ele>3.97</ele>
        <time>2023-05-13T14:02:35.000Z</time>
      </trkpt>
      <trkpt lat="47.61918" lon="-2.76266">
        <ele>5.04</ele>
        <time>2023-05-13T14:03:17.000Z</time>
      </trkpt>
      <trkpt lat="47.61926" lon="-2.76291">
        <ele>4.71</ele>
        <time>2023-05-13T14:03:32.000Z</time>
      </trkpt>
      <trkpt lat="47.61936" lon="-2.76314">
        <ele>4.09</ele>
        <time>2023-05-13T14:03:44.000Z</time>
      </trkpt>
      <trkpt lat="47.61945" lon="-2.76338">
        <ele>2.58</ele>
        <time>2023-05-13T14:03:58.000Z</time>
      </trkpt>
      <trkpt lat="47.61957" lon="-2.76359">
        <ele>1.47</ele>
        <time>2023-05-13T14:04:11.000Z</time>
      </trkpt>
      <trkpt lat="47.61968" lon="-2.76381">
        <ele>5.09</ele>
        <time>2023-05-13T14:04:25.000Z</time>
      </trkpt>
      <trkpt lat="47.6198" lon="-2.76403">
        <ele>5.85</ele>
        <time>2023-05-13T14:04:39.000Z</time>
      </trkpt>
      <trkpt lat="47.61989" lon="-2.76428">
        <ele>5.05</ele>
        <time>2023-05-13T14:05:04.000Z</time>
      </trkpt>
      <trkpt lat="47.62001" lon="-2.7645">
        <ele>9</ele>
        <time>2023-05-13T14:05:21.000Z</time>
      </trkpt>
      <trkpt lat="47.62009" lon="-2.76477">
        <ele>9.91</ele>
        <time>2023-05-13T14:05:35.000Z</time>
      </trkpt>
      <trkpt lat="47.62017" lon="-2.76502">
        <ele>8.47</ele>
        <time>2023-05-13T14:05:47.000Z</time>
      </trkpt>
      <trkpt lat="47.62024" lon="-2.76527">
        <ele>4.78</ele>
        <time>2023-05-13T14:06:04.000Z</time>
      </trkpt>
      <trkpt lat="47.62035" lon="-2.76551">
        <ele>2.34</ele>
        <time>2023-05-13T14:06:19.000Z</time>
      </trkpt>
      <trkpt lat="47.62049" lon="-2.76569">
        <ele>5.45</ele>
        <time>2023-05-13T14:06:33.000Z</time>
      </trkpt>
      <trkpt lat="47.62059" lon="-2.76591">
        <ele>8.76</ele>
        <time>2023-05-13T14:06:46.000Z</time>
      </trkpt>
      <trkpt lat="47.62058" lon="-2.7662">
        <ele>8.69</ele>
        <time>2023-05-13T14:06:55.000Z</time>
      </trkpt>
      <trkpt lat="47.62043" lon="-2.76637">
        <ele>4.02</ele>
        <time>2023-05-13T14:07:05.000Z</time>
      </trkpt>
      <trkpt lat="47.62039" lon="-2.76665">
        <ele>1.93</ele>
        <time>2023-05-13T14:07:22.000Z</time>
      </trkpt>
      <trkpt lat="47.62049" lon="-2.76688">
        <ele>2.82</ele>
        <time>2023-05-13T14:07:40.000Z</time>
      </trkpt>
      <trkpt lat="47.62059" lon="-2.76712">
        <ele>9.97</ele>
        <time>2023-05-13T14:07:57.000Z</time>
      </trkpt>
      <trkpt lat="47.62064" lon="-2.76741">
        <ele>8.85</ele>
        <time>2023-05-13T14:08:03.000Z</time>
      </trkpt>
      <trkpt lat="47.62071" lon="-2.76766">
        <ele>1.4</ele>
        <time>2023-05-13T14:08:17.000Z</time>
      </trkpt>
      <trkpt lat="47.62082" lon="-2.76787">
        <ele>-1.7</ele>
        <time>2023-05-13T14:08:31.000Z</time>
      </trkpt>
      <trkpt lat="47.621" lon="-2.76795">
        <ele>0.07</ele>
        <time>2023-05-13T14:08:44.000Z</time>
      </trkpt>
      <trkpt lat="47.62115" lon="-2.76811">
        <ele>7.31</ele>
        <time>2023-05-13T14:08:57.000Z</time>
      </trkpt>
      <trkpt lat="47.62131" lon="-2.76826">
        <ele>6.09</ele>
        <time>2023-05-13T14:09:12.000Z</time>
      </trkpt>
      <trkpt lat="47.6215" lon="-2.76832">
        <ele>7.11</ele>
        <time>2023-05-13T14:09:26.000Z</time>
      </trkpt>
      <trkpt lat="47.62167" lon="-2.76845">
        <ele>8.36</ele>
        <time>2023-05-13T14:09:39.000Z</time>
      </trkpt>
      <trkpt lat="47.62182" lon="-2.76862">
        <ele>6.6</ele>
        <time>2023-05-13T14:09:54.000Z</time>
      </trkpt>
      <trkpt lat="47.62191" lon="-2.76886">
        <ele>8.41</ele>
        <time>2023-05-13T14:10:08.000Z</time>
      </trkpt>
      <trkpt lat="47.622" lon="-2.7691">
        <ele>9.61</ele>
        <time>2023-05-13T14:10:21.000Z</time>
      </trkpt>
      <trkpt lat="47.6221" lon="-2.76934">
        <ele>7.46</ele>
        <time>2023-05-13T14:10:36.000Z</time>
      </trkpt>
      <trkpt lat="47.62219" lon="-2.76958">
        <ele>11.04</ele>
        <time>2023-05-13T14:10:50.000Z</time>
      </trkpt>
      <trkpt lat="47.62227" lon="-2.76982">
        <ele>12.4</ele>
        <time>2023-05-13T14:11:03.000Z</time>
      </trkpt>
      <trkpt lat="47.62236" lon="-2.77006">
        <ele>11.41</ele>
        <time>2023-05-13T14:11:17.000Z</time>
      </trkpt>
      <trkpt lat="47.62244" lon="-2.7703">
        <ele>11.71</ele>
        <time>2023-05-13T14:11:30.000Z</time>
      </trkpt>
      <trkpt lat="47.62253" lon="-2.77053">
        <ele>11.63</ele>
        <time>2023-05-13T14:11:43.000Z</time>
      </trkpt>
      <trkpt lat="47.62263" lon="-2.77078">
        <ele>12.79</ele>
        <time>2023-05-13T14:11:56.000Z</time>
      </trkpt>
      <trkpt lat="47.62272" lon="-2.77102">
        <ele>11.47</ele>
        <time>2023-05-13T14:12:10.000Z</time>
      </trkpt>
      <trkpt lat="47.6228" lon="-2.77126">
        <ele>10.52</ele>
        <time>2023-05-13T14:12:23.000Z</time>
      </trkpt>
      <trkpt lat="47.6229" lon="-2.77149">
        <ele>6</ele>
        <time>2023-05-13T14:12:38.000Z</time>
      </trkpt>
      <trkpt lat="47.62298" lon="-2.77175">
        <ele>5.2</ele>
        <time>2023-05-13T14:12:53.000Z</time>
      </trkpt>
      <trkpt lat="47.62306" lon="-2.77201">
        <ele>6.58</ele>
        <time>2023-05-13T14:13:08.000Z</time>
      </trkpt>
      <trkpt lat="47.62315" lon="-2.77225">
        <ele>7.41</ele>
        <time>2023-05-13T14:13:23.000Z</time>
      </trkpt>
      <trkpt lat="47.62311" lon="-2.77252">
        <ele>8.58</ele>
        <time>2023-05-13T14:13:37.000Z</time>
      </trkpt>
      <trkpt lat="47.62297" lon="-2.77271">
        <ele>9.03</ele>
        <time>2023-05-13T14:13:52.000Z</time>
      </trkpt>
      <trkpt lat="47.62283" lon="-2.77288">
        <ele>8.53</ele>
        <time>2023-05-13T14:14:04.000Z</time>
      </trkpt>
      <trkpt lat="47.62273" lon="-2.77311">
        <ele>10.15</ele>
        <time>2023-05-13T14:14:17.000Z</time>
      </trkpt>
      <trkpt lat="47.62289" lon="-2.77325">
        <ele>6.41</ele>
        <time>2023-05-13T14:14:33.000Z</time>
      </trkpt>
      <trkpt lat="47.62305" lon="-2.77341">
        <ele>10.08</ele>
        <time>2023-05-13T14:14:46.000Z</time>
      </trkpt>
      <trkpt lat="47.62313" lon="-2.77365">
        <ele>11.32</ele>
        <time>2023-05-13T14:14:59.000Z</time>
      </trkpt>
      <trkpt lat="47.62315" lon="-2.77393">
        <ele>13.37</ele>
        <time>2023-05-13T14:15:15.000Z</time>
      </trkpt>
      <trkpt lat="47.6232" lon="-2.7742">
        <ele>12.9</ele>
        <time>2023-05-13T14:15:29.000Z</time>
      </trkpt>
      <trkpt lat="47.62328" lon="-2.77446">
        <ele>12.71</ele>
        <time>2023-05-13T14:15:43.000Z</time>
      </trkpt>
      <trkpt lat="47.62339" lon="-2.77469">
        <ele>15.93</ele>
        <time>2023-05-13T14:15:55.000Z</time>
      </trkpt>
      <trkpt lat="47.6235" lon="-2.77489">
        <ele>14.94</ele>
        <time>2023-05-13T14:16:07.000Z</time>
      </trkpt>
      <trkpt lat="47.62365" lon="-2.77506">
        <ele>10.96</ele>
        <time>2023-05-13T14:16:24.000Z</time>
      </trkpt>
      <trkpt lat="47.6238" lon="-2.7752">
        <ele>12.5</ele>
        <time>2023-05-13T14:16:39.000Z</time>
      </trkpt>
      <trkpt lat="47.62393" lon="-2.7754">
        <ele>7.77</ele>
        <time>2023-05-13T14:16:53.000Z</time>
      </trkpt>
      <trkpt lat="47.62406" lon="-2.77561">
        <ele>7.14</ele>
        <time>2023-05-13T14:17:07.000Z</time>
      </trkpt>
      <trkpt lat="47.62417" lon="-2.77582">
        <ele>7</ele>
        <time>2023-05-13T14:17:20.000Z</time>
      </trkpt>
      <trkpt lat="47.62429" lon="-2.77605">
        <ele>7.03</ele>
        <time>2023-05-13T14:17:34.000Z</time>
      </trkpt>
      <trkpt lat="47.62439" lon="-2.77628">
        <ele>8.22</ele>
        <time>2023-05-13T14:17:49.000Z</time>
      </trkpt>
      <trkpt lat="47.62445" lon="-2.77654">
        <ele>6.03</ele>
        <time>2023-05-13T14:18:03.000Z</time>
      </trkpt>
      <trkpt lat="47.62429" lon="-2.77668">
        <ele>4.74</ele>
        <time>2023-05-13T14:18:19.000Z</time>
      </trkpt>
      <trkpt lat="47.62411" lon="-2.7767">
        <ele>5.13</ele>
        <time>2023-05-13T14:18:33.000Z</time>
      </trkpt>
      <trkpt lat="47.62392" lon="-2.77681">
        <ele>3.01</ele>
        <time>2023-05-13T14:18:50.000Z</time>
      </trkpt>
      <trkpt lat="47.62385" lon="-2.77706">
        <ele>4.6</ele>
        <time>2023-05-13T14:19:02.000Z</time>
      </trkpt>
      <trkpt lat="47.62381" lon="-2.77732">
        <ele>4.86</ele>
        <time>2023-05-13T14:19:17.000Z</time>
      </trkpt>
      <trkpt lat="47.62379" lon="-2.77759">
        <ele>2.02</ele>
        <time>2023-05-13T14:19:31.000Z</time>
      </trkpt>
      <trkpt lat="47.62378" lon="-2.77787">
        <ele>1.08</ele>
        <time>2023-05-13T14:19:45.000Z</time>
      </trkpt>
      <trkpt lat="47.62373" lon="-2.77812">
        <ele>1.9</ele>
        <time>2023-05-13T14:20:00.000Z</time>
      </trkpt>
      <trkpt lat="47.62363" lon="-2.77835">
        <ele>2.08</ele>
        <time>2023-05-13T14:20:17.000Z</time>
      </trkpt>
      <trkpt lat="47.62348" lon="-2.77851">
        <ele>-0.63</ele>
        <time>2023-05-13T14:20:35.000Z</time>
      </trkpt>
      <trkpt lat="47.62344" lon="-2.77879">
        <ele>-1.63</ele>
        <time>2023-05-13T14:20:48.000Z</time>
      </trkpt>
      <trkpt lat="47.62331" lon="-2.77897">
        <ele>-4.07</ele>
        <time>2023-05-13T14:21:09.000Z</time>
      </trkpt>
      <trkpt lat="47.62338" lon="-2.77872">
        <ele>-1.86</ele>
        <time>2023-05-13T14:28:23.000Z</time>
      </trkpt>
      <trkpt lat="47.62346" lon="-2.77847">
        <ele>1.03</ele>
        <time>2023-05-13T14:28:40.000Z</time>
      </trkpt>
      <trkpt lat="47.62358" lon="-2.77827">
        <ele>-0.52</ele>
        <time>2023-05-13T14:28:58.000Z</time>
      </trkpt>
      <trkpt lat="47.62371" lon="-2.77807">
        <ele>-0.42</ele>
        <time>2023-05-13T14:31:05.000Z</time>
      </trkpt>
      <trkpt lat="47.62374" lon="-2.7778">
        <ele>-0.85</ele>
        <time>2023-05-13T14:31:20.000Z</time>
      </trkpt>
      <trkpt lat="47.62375" lon="-2.77752">
        <ele>1.04</ele>
        <time>2023-05-13T14:31:35.000Z</time>
      </trkpt>
      <trkpt lat="47.62381" lon="-2.77725">
        <ele>0.22</ele>
        <time>2023-05-13T14:31:50.000Z</time>
      </trkpt>
      <trkpt lat="47.62387" lon="-2.77698">
        <ele>-0.32</ele>
        <time>2023-05-13T14:32:06.000Z</time>
      </trkpt>
      <trkpt lat="47.62398" lon="-2.77676">
        <ele>1.92</ele>
        <time>2023-05-13T14:32:21.000Z</time>
      </trkpt>
      <trkpt lat="47.62417" lon="-2.77671">
        <ele>6.7</ele>
        <time>2023-05-13T14:32:37.000Z</time>
      </trkpt>
      <trkpt lat="47.62435" lon="-2.77666">
        <ele>6.53</ele>
        <time>2023-05-13T14:32:51.000Z</time>
      </trkpt>
      <trkpt lat="47.62444" lon="-2.77641">
        <ele>3.56</ele>
        <time>2023-05-13T14:33:09.000Z</time>
      </trkpt>
      <trkpt lat="47.62435" lon="-2.77619">
        <ele>4.9</ele>
        <time>2023-05-13T14:33:24.000Z</time>
      </trkpt>
      <trkpt lat="47.62423" lon="-2.77596">
        <ele>7.14</ele>
        <time>2023-05-13T14:33:38.000Z</time>
      </trkpt>
      <trkpt lat="47.62412" lon="-2.77575">
        <ele>7.19</ele>
        <time>2023-05-13T14:33:51.000Z</time>
      </trkpt>
      <trkpt lat="47.62402" lon="-2.77551">
        <ele>8.08</ele>
        <time>2023-05-13T14:34:06.000Z</time>
      </trkpt>
      <trkpt lat="47.62387" lon="-2.77534">
        <ele>7.76</ele>
        <time>2023-05-13T14:34:20.000Z</time>
      </trkpt>
      <trkpt lat="47.62376" lon="-2.77512">
        <ele>12.34</ele>
        <time>2023-05-13T14:34:35.000Z</time>
      </trkpt>
      <trkpt lat="47.62357" lon="-2.77504">
        <ele>10.39</ele>
        <time>2023-05-13T14:34:53.000Z</time>
      </trkpt>
      <trkpt lat="47.62345" lon="-2.77484">
        <ele>8.71</ele>
        <time>2023-05-13T14:35:09.000Z</time>
      </trkpt>
      <trkpt lat="47.62334" lon="-2.77462">
        <ele>10.88</ele>
        <time>2023-05-13T14:35:25.000Z</time>
      </trkpt>
      <trkpt lat="47.62321" lon="-2.77441">
        <ele>11</ele>
        <time>2023-05-13T14:35:39.000Z</time>
      </trkpt>
      <trkpt lat="47.62314" lon="-2.77414">
        <ele>17.77</ele>
        <time>2023-05-13T14:35:52.000Z</time>
      </trkpt>
      <trkpt lat="47.6231" lon="-2.77386">
        <ele>18.67</ele>
        <time>2023-05-13T14:36:07.000Z</time>
      </trkpt>
      <trkpt lat="47.62307" lon="-2.7736">
        <ele>13.36</ele>
        <time>2023-05-13T14:36:23.000Z</time>
      </trkpt>
      <trkpt lat="47.62299" lon="-2.77335">
        <ele>14.34</ele>
        <time>2023-05-13T14:36:39.000Z</time>
      </trkpt>
      <trkpt lat="47.62283" lon="-2.77323">
        <ele>16.44</ele>
        <time>2023-05-13T14:36:52.000Z</time>
      </trkpt>
      <trkpt lat="47.62268" lon="-2.77306">
        <ele>11.53</ele>
        <time>2023-05-13T14:37:07.000Z</time>
      </trkpt>
      <trkpt lat="47.62253" lon="-2.77289">
        <ele>6.96</ele>
        <time>2023-05-13T14:37:22.000Z</time>
      </trkpt>
      <trkpt lat="47.62239" lon="-2.77271">
        <ele>8.52</ele>
        <time>2023-05-13T14:37:35.000Z</time>
      </trkpt>
      <trkpt lat="47.62225" lon="-2.77253">
        <ele>7.03</ele>
        <time>2023-05-13T14:37:49.000Z</time>
      </trkpt>
      <trkpt lat="47.62214" lon="-2.77232">
        <ele>7.77</ele>
        <time>2023-05-13T14:38:02.000Z</time>
      </trkpt>
      <trkpt lat="47.62201" lon="-2.77213">
        <ele>10.09</ele>
        <time>2023-05-13T14:38:14.000Z</time>
      </trkpt>
      <trkpt lat="47.6219" lon="-2.77192">
        <ele>9.48</ele>
        <time>2023-05-13T14:38:28.000Z</time>
      </trkpt>
      <trkpt lat="47.62177" lon="-2.77172">
        <ele>11.99</ele>
        <time>2023-05-13T14:38:42.000Z</time>
      </trkpt>
      <trkpt lat="47.62161" lon="-2.77156">
        <ele>13.44</ele>
        <time>2023-05-13T14:38:56.000Z</time>
      </trkpt>
      <trkpt lat="47.62146" lon="-2.77138">
        <ele>12.12</ele>
        <time>2023-05-13T14:39:09.000Z</time>
      </trkpt>
      <trkpt lat="47.62132" lon="-2.77119">
        <ele>11.61</ele>
        <time>2023-05-13T14:39:22.000Z</time>
      </trkpt>
      <trkpt lat="47.62122" lon="-2.77097">
        <ele>11</ele>
        <time>2023-05-13T14:39:37.000Z</time>
      </trkpt>
      <trkpt lat="47.62108" lon="-2.7708">
        <ele>8.53</ele>
        <time>2023-05-13T14:39:49.000Z</time>
      </trkpt>
      <trkpt lat="47.62095" lon="-2.77057">
        <ele>6.06</ele>
        <time>2023-05-13T14:40:03.000Z</time>
      </trkpt>
      <trkpt lat="47.62083" lon="-2.77036">
        <ele>6.03</ele>
        <time>2023-05-13T14:40:16.000Z</time>
      </trkpt>
      <trkpt lat="47.62068" lon="-2.77018">
        <ele>10.61</ele>
        <time>2023-05-13T14:40:29.000Z</time>
      </trkpt>
      <trkpt lat="47.62052" lon="-2.77003">
        <ele>13.61</ele>
        <time>2023-05-13T14:40:44.000Z</time>
      </trkpt>
      <trkpt lat="47.62037" lon="-2.76989">
        <ele>9.1</ele>
        <time>2023-05-13T14:40:59.000Z</time>
      </trkpt>
      <trkpt lat="47.6202" lon="-2.76975">
        <ele>6.77</ele>
        <time>2023-05-13T14:41:13.000Z</time>
      </trkpt>
      <trkpt lat="47.62004" lon="-2.76962">
        <ele>7.72</ele>
        <time>2023-05-13T14:41:27.000Z</time>
      </trkpt>
      <trkpt lat="47.61991" lon="-2.76943">
        <ele>7.92</ele>
        <time>2023-05-13T14:41:44.000Z</time>
      </trkpt>
      <trkpt lat="47.61976" lon="-2.76928">
        <ele>6.48</ele>
        <time>2023-05-13T14:41:59.000Z</time>
      </trkpt>
      <trkpt lat="47.6196" lon="-2.76913">
        <ele>7.02</ele>
        <time>2023-05-13T14:42:12.000Z</time>
      </trkpt>
      <trkpt lat="47.61945" lon="-2.76896">
        <ele>5.51</ele>
        <time>2023-05-13T14:42:26.000Z</time>
      </trkpt>
      <trkpt lat="47.6193" lon="-2.76878">
        <ele>4.51</ele>
        <time>2023-05-13T14:42:41.000Z</time>
      </trkpt>
      <trkpt lat="47.61917" lon="-2.76859">
        <ele>1.27</ele>
        <time>2023-05-13T14:42:54.000Z</time>
      </trkpt>
      <trkpt lat="47.61914" lon="-2.76831">
        <ele>-1.52</ele>
        <time>2023-05-13T14:43:09.000Z</time>
      </trkpt>
      <trkpt lat="47.61911" lon="-2.76805">
        <ele>-0.15</ele>
        <time>2023-05-13T14:43:23.000Z</time>
      </trkpt>
      <trkpt lat="47.61907" lon="-2.76778">
        <ele>1.12</ele>
        <time>2023-05-13T14:43:37.000Z</time>
      </trkpt>
      <trkpt lat="47.61898" lon="-2.76754">
        <ele>1.13</ele>
        <time>2023-05-13T14:43:52.000Z</time>
      </trkpt>
      <trkpt lat="47.61889" lon="-2.76729">
        <ele>-0.06</ele>
        <time>2023-05-13T14:44:07.000Z</time>
      </trkpt>
      <trkpt lat="47.61878" lon="-2.76706">
        <ele>-0.76</ele>
        <time>2023-05-13T14:44:21.000Z</time>
      </trkpt>
      <trkpt lat="47.61865" lon="-2.76685">
        <ele>0.87</ele>
        <time>2023-05-13T14:44:35.000Z</time>
      </trkpt>
      <trkpt lat="47.61855" lon="-2.76663">
        <ele>1.91</ele>
        <time>2023-05-13T14:44:49.000Z</time>
      </trkpt>
      <trkpt lat="47.61845" lon="-2.7664">
        <ele>3.43</ele>
        <time>2023-05-13T14:45:03.000Z</time>
      </trkpt>
      <trkpt lat="47.61836" lon="-2.76616">
        <ele>3.7</ele>
        <time>2023-05-13T14:45:17.000Z</time>
      </trkpt>
      <trkpt lat="47.61825" lon="-2.76593">
        <ele>-0.32</ele>
        <time>2023-05-13T14:45:32.000Z</time>
      </trkpt>
      <trkpt lat="47.61814" lon="-2.76571">
        <ele>-0.91</ele>
        <time>2023-05-13T14:45:47.000Z</time>
      </trkpt>
      <trkpt lat="47.61803" lon="-2.76548">
        <ele>-0.18</ele>
        <time>2023-05-13T14:46:02.000Z</time>
      </trkpt>
      <trkpt lat="47.618" lon="-2.76521">
        <ele>-0.47</ele>
        <time>2023-05-13T14:46:18.000Z</time>
      </trkpt>
      <trkpt lat="47.61797" lon="-2.76494">
        <ele>-0.41</ele>
        <time>2023-05-13T14:46:34.000Z</time>
      </trkpt>
      <trkpt lat="47.61783" lon="-2.76477">
        <ele>0.14</ele>
        <time>2023-05-13T14:46:51.000Z</time>
      </trkpt>
      <trkpt lat="47.61765" lon="-2.76471">
        <ele>0.41</ele>
        <time>2023-05-13T14:47:06.000Z</time>
      </trkpt>
      <trkpt lat="47.61747" lon="-2.7647">
        <ele>-1.64</ele>
        <time>2023-05-13T14:47:19.000Z</time>
      </trkpt>
      <trkpt lat="47.6173" lon="-2.76462">
        <ele>-1.35</ele>
        <time>2023-05-13T14:47:35.000Z</time>
      </trkpt>
      <trkpt lat="47.61722" lon="-2.76437">
        <ele>-0.71</ele>
        <time>2023-05-13T14:47:49.000Z</time>
      </trkpt>
      <trkpt lat="47.61712" lon="-2.76412">
        <ele>2.05</ele>
        <time>2023-05-13T14:48:02.000Z</time>
      </trkpt>
      <trkpt lat="47.61706" lon="-2.76386">
        <ele>3.64</ele>
        <time>2023-05-13T14:48:16.000Z</time>
      </trkpt>
      <trkpt lat="47.61701" lon="-2.76358">
        <ele>8.85</ele>
        <time>2023-05-13T14:48:31.000Z</time>
      </trkpt>
      <trkpt lat="47.61694" lon="-2.76333">
        <ele>4.93</ele>
        <time>2023-05-13T14:48:46.000Z</time>
      </trkpt>
      <trkpt lat="47.61684" lon="-2.76309">
        <ele>1.44</ele>
        <time>2023-05-13T14:49:01.000Z</time>
      </trkpt>
      <trkpt lat="47.61672" lon="-2.76288">
        <ele>7.5</ele>
        <time>2023-05-13T14:49:12.000Z</time>
      </trkpt>
      <trkpt lat="47.61657" lon="-2.76272">
        <ele>10.33</ele>
        <time>2023-05-13T14:49:28.000Z</time>
      </trkpt>
      <trkpt lat="47.61639" lon="-2.7628">
        <ele>5.6</ele>
        <time>2023-05-13T14:49:43.000Z</time>
      </trkpt>
      <trkpt lat="47.61622" lon="-2.76271">
        <ele>7.53</ele>
        <time>2023-05-13T14:50:06.000Z</time>
      </trkpt>
      <trkpt lat="47.61613" lon="-2.76247">
        <ele>4.59</ele>
        <time>2023-05-13T14:50:24.000Z</time>
      </trkpt>
      <trkpt lat="47.61602" lon="-2.76226">
        <ele>3.52</ele>
        <time>2023-05-13T14:50:40.000Z</time>
      </trkpt>
      <trkpt lat="47.61591" lon="-2.76204">
        <ele>6.3</ele>
        <time>2023-05-13T14:50:52.000Z</time>
      </trkpt>
      <trkpt lat="47.61578" lon="-2.76184">
        <ele>10.44</ele>
        <time>2023-05-13T14:51:07.000Z</time>
      </trkpt>
      <trkpt lat="47.61569" lon="-2.76159">
        <ele>9.5</ele>
        <time>2023-05-13T14:51:20.000Z</time>
      </trkpt>
      <trkpt lat="47.61558" lon="-2.76138">
        <ele>7.81</ele>
        <time>2023-05-13T14:51:35.000Z</time>
      </trkpt>
      <trkpt lat="47.61555" lon="-2.7611">
        <ele>5.32</ele>
        <time>2023-05-13T14:51:48.000Z</time>
      </trkpt>
      <trkpt lat="47.61549" lon="-2.76084">
        <ele>5.27</ele>
        <time>2023-05-13T14:52:06.000Z</time>
      </trkpt>
      <trkpt lat="47.61537" lon="-2.76064">
        <ele>4.5</ele>
        <time>2023-05-13T14:52:20.000Z</time>
      </trkpt>
      <trkpt lat="47.61525" lon="-2.76042">
        <ele>6.53</ele>
        <time>2023-05-13T14:52:35.000Z</time>
      </trkpt>
      <trkpt lat="47.61517" lon="-2.76017">
        <ele>2.59</ele>
        <time>2023-05-13T14:52:52.000Z</time>
      </trkpt>
      <trkpt lat="47.61528" lon="-2.75996">
        <ele>0.36</ele>
        <time>2023-05-13T14:53:47.000Z</time>
      </trkpt>
      <trkpt lat="47.61533" lon="-2.7597">
        <ele>-1.4</ele>
        <time>2023-05-13T14:54:12.000Z</time>
      </trkpt>
      <trkpt lat="47.61539" lon="-2.75943">
        <ele>4.9</ele>
        <time>2023-05-13T14:55:37.000Z</time>
      </trkpt>
      <trkpt lat="47.61541" lon="-2.75916">
        <ele>1.84</ele>
        <time>2023-05-13T14:55:53.000Z</time>
      </trkpt>
      <trkpt lat="47.61549" lon="-2.75891">
        <ele>3.31</ele>
        <time>2023-05-13T14:56:36.000Z</time>
      </trkpt>
      <trkpt lat="47.61557" lon="-2.75867">
        <ele>-1.32</ele>
        <time>2023-05-13T14:56:53.000Z</time>
      </trkpt>
      <trkpt lat="47.61555" lon="-2.75839">
        <ele>-1.83</ele>
        <time>2023-05-13T14:57:09.000Z</time>
      </trkpt>
      <trkpt lat="47.61557" lon="-2.75812">
        <ele>-1.32</ele>
        <time>2023-05-13T14:57:32.000Z</time>
      </trkpt>
      <trkpt lat="47.61557" lon="-2.75784">
        <ele>-2.9</ele>
        <time>2023-05-13T14:57:49.000Z</time>
      </trkpt>
      <trkpt lat="47.61549" lon="-2.75759">
        <ele>-2.62</ele>
        <time>2023-05-13T14:58:04.000Z</time>
      </trkpt>
      <trkpt lat="47.61533" lon="-2.75744">
        <ele>-0.58</ele>
        <time>2023-05-13T14:58:23.000Z</time>
      </trkpt>
      <trkpt lat="47.61515" lon="-2.75742">
        <ele>1.15</ele>
        <time>2023-05-13T14:58:40.000Z</time>
      </trkpt>
      <trkpt lat="47.61496" lon="-2.75741">
        <ele>4.97</ele>
        <time>2023-05-13T14:58:56.000Z</time>
      </trkpt>
      <trkpt lat="47.61478" lon="-2.75736">
        <ele>5.7</ele>
        <time>2023-05-13T14:59:10.000Z</time>
      </trkpt>
      <trkpt lat="47.6146" lon="-2.75728">
        <ele>3.6</ele>
        <time>2023-05-13T14:59:22.000Z</time>
      </trkpt>
      <trkpt lat="47.61444" lon="-2.75714">
        <ele>-1.42</ele>
        <time>2023-05-13T14:59:35.000Z</time>
      </trkpt>
      <trkpt lat="47.61432" lon="-2.75694">
        <ele>-0.8</ele>
        <time>2023-05-13T14:59:49.000Z</time>
      </trkpt>
      <trkpt lat="47.61417" lon="-2.75676">
        <ele>-1.35</ele>
        <time>2023-05-13T15:00:03.000Z</time>
      </trkpt>
      <trkpt lat="47.61405" lon="-2.75656">
        <ele>-0.83</ele>
        <time>2023-05-13T15:00:17.000Z</time>
      </trkpt>
      <trkpt lat="47.61392" lon="-2.75637">
        <ele>0.13</ele>
        <time>2023-05-13T15:00:31.000Z</time>
      </trkpt>
      <trkpt lat="47.61381" lon="-2.75613">
        <ele>1.03</ele>
        <time>2023-05-13T15:00:46.000Z</time>
      </trkpt>
      <trkpt lat="47.61368" lon="-2.75594">
        <ele>-2.26</ele>
        <time>2023-05-13T15:01:00.000Z</time>
      </trkpt>
      <trkpt lat="47.61352" lon="-2.75579">
        <ele>0.79</ele>
        <time>2023-05-13T15:01:14.000Z</time>
      </trkpt>
      <trkpt lat="47.6134" lon="-2.75557">
        <ele>2.31</ele>
        <time>2023-05-13T15:01:28.000Z</time>
      </trkpt>
      <trkpt lat="47.61329" lon="-2.75534">
        <ele>0.61</ele>
        <time>2023-05-13T15:01:43.000Z</time>
      </trkpt>
      <trkpt lat="47.61322" lon="-2.7551">
        <ele>4.21</ele>
        <time>2023-05-13T15:01:57.000Z</time>
      </trkpt>
      <trkpt lat="47.61303" lon="-2.75512">
        <ele>5</ele>
        <time>2023-05-13T15:02:17.000Z</time>
      </trkpt>
      <trkpt lat="47.61284" lon="-2.75522">
        <ele>9.52</ele>
        <time>2023-05-13T15:02:31.000Z</time>
      </trkpt>
      <trkpt lat="47.61267" lon="-2.75531">
        <ele>8.91</ele>
        <time>2023-05-13T15:02:45.000Z</time>
      </trkpt>
      <trkpt lat="47.61249" lon="-2.75538">
        <ele>8.36</ele>
        <time>2023-05-13T15:03:00.000Z</time>
      </trkpt>
      <trkpt lat="47.61231" lon="-2.75541">
        <ele>8.34</ele>
        <time>2023-05-13T15:03:14.000Z</time>
      </trkpt>
      <trkpt lat="47.61213" lon="-2.75532">
        <ele>5.45</ele>
        <time>2023-05-13T15:03:28.000Z</time>
      </trkpt>
      <trkpt lat="47.61197" lon="-2.75518">
        <ele>0.17</ele>
        <time>2023-05-13T15:03:43.000Z</time>
      </trkpt>
      <trkpt lat="47.61201" lon="-2.75491">
        <ele>-2.29</ele>
        <time>2023-05-13T15:03:57.000Z</time>
      </trkpt>
      <trkpt lat="47.61207" lon="-2.75466">
        <ele>-0.49</ele>
        <time>2023-05-13T15:04:13.000Z</time>
      </trkpt>
      <trkpt lat="47.61203" lon="-2.75438">
        <ele>-1.06</ele>
        <time>2023-05-13T15:04:29.000Z</time>
      </trkpt>
      <trkpt lat="47.61205" lon="-2.75409">
        <ele>-4.19</ele>
        <time>2023-05-13T15:04:44.000Z</time>
      </trkpt>
      <trkpt lat="47.61196" lon="-2.75385">
        <ele>-2.56</ele>
        <time>2023-05-13T15:05:00.000Z</time>
      </trkpt>
      <trkpt lat="47.61193" lon="-2.75358">
        <ele>-0.68</ele>
        <time>2023-05-13T15:05:15.000Z</time>
      </trkpt>
      <trkpt lat="47.61202" lon="-2.75334">
        <ele>-2.45</ele>
        <time>2023-05-13T15:05:30.000Z</time>
      </trkpt>
      <trkpt lat="47.61206" lon="-2.75306">
        <ele>-2.91</ele>
        <time>2023-05-13T15:05:45.000Z</time>
      </trkpt>
      <trkpt lat="47.61214" lon="-2.75281">
        <ele>-0.97</ele>
        <time>2023-05-13T15:05:58.000Z</time>
      </trkpt>
      <trkpt lat="47.61215" lon="-2.75254">
        <ele>-1.36</ele>
        <time>2023-05-13T15:06:11.000Z</time>
      </trkpt>
      <trkpt lat="47.61215" lon="-2.75227">
        <ele>1.1</ele>
        <time>2023-05-13T15:06:27.000Z</time>
      </trkpt>
      <trkpt lat="47.61217" lon="-2.752">
        <ele>1.14</ele>
        <time>2023-05-13T15:06:43.000Z</time>
      </trkpt>
      <trkpt lat="47.61219" lon="-2.75173">
        <ele>-0.26</ele>
        <time>2023-05-13T15:06:56.000Z</time>
      </trkpt>
      <trkpt lat="47.61221" lon="-2.75145">
        <ele>0.29</ele>
        <time>2023-05-13T15:07:10.000Z</time>
      </trkpt>
      <trkpt lat="47.61219" lon="-2.75118">
        <ele>2.22</ele>
        <time>2023-05-13T15:07:26.000Z</time>
      </trkpt>
      <trkpt lat="47.61207" lon="-2.75098">
        <ele>3.66</ele>
        <time>2023-05-13T15:07:41.000Z</time>
      </trkpt>
      <trkpt lat="47.61194" lon="-2.75077">
        <ele>5.79</ele>
        <time>2023-05-13T15:07:56.000Z</time>
      </trkpt>
      <trkpt lat="47.61183" lon="-2.75054">
        <ele>4.01</ele>
        <time>2023-05-13T15:08:11.000Z</time>
      </trkpt>
      <trkpt lat="47.61176" lon="-2.75029">
        <ele>3.83</ele>
        <time>2023-05-13T15:08:25.000Z</time>
      </trkpt>
      <trkpt lat="47.61174" lon="-2.75001">
        <ele>2.29</ele>
        <time>2023-05-13T15:08:39.000Z</time>
      </trkpt>
      <trkpt lat="47.61173" lon="-2.74975">
        <ele>0.13</ele>
        <time>2023-05-13T15:08:52.000Z</time>
      </trkpt>
      <trkpt lat="47.61171" lon="-2.74947">
        <ele>0.12</ele>
        <time>2023-05-13T15:09:06.000Z</time>
      </trkpt>
      <trkpt lat="47.61168" lon="-2.74919">
        <ele>3.51</ele>
        <time>2023-05-13T15:09:22.000Z</time>
      </trkpt>
      <trkpt lat="47.61181" lon="-2.74901">
        <ele>7.26</ele>
        <time>2023-05-13T15:09:43.000Z</time>
      </trkpt>
      <trkpt lat="47.61199" lon="-2.749">
        <ele>10.4</ele>
        <time>2023-05-13T15:09:58.000Z</time>
      </trkpt>
      <trkpt lat="47.61217" lon="-2.74902">
        <ele>10.57</ele>
        <time>2023-05-13T15:10:12.000Z</time>
      </trkpt>
      <trkpt lat="47.61236" lon="-2.74905">
        <ele>10.21</ele>
        <time>2023-05-13T15:10:27.000Z</time>
      </trkpt>
      <trkpt lat="47.61254" lon="-2.74907">
        <ele>10.65</ele>
        <time>2023-05-13T15:10:42.000Z</time>
      </trkpt>
      <trkpt lat="47.61273" lon="-2.74908">
        <ele>14.58</ele>
        <time>2023-05-13T15:10:56.000Z</time>
      </trkpt>
      <trkpt lat="47.61292" lon="-2.74908">
        <ele>16.52</ele>
        <time>2023-05-13T15:11:12.000Z</time>
      </trkpt>
      <trkpt lat="47.6131" lon="-2.74911">
        <ele>16.49</ele>
        <time>2023-05-13T15:11:28.000Z</time>
      </trkpt>
      <trkpt lat="47.61327" lon="-2.74922">
        <ele>20.64</ele>
        <time>2023-05-13T15:11:47.000Z</time>
      </trkpt>
      <trkpt lat="47.61345" lon="-2.7492">
        <ele>17.83</ele>
        <time>2023-05-13T15:12:05.000Z</time>
      </trkpt>
      <trkpt lat="47.61348" lon="-2.74892">
        <ele>13.19</ele>
        <time>2023-05-13T15:12:22.000Z</time>
      </trkpt>
      <trkpt lat="47.61345" lon="-2.74865">
        <ele>11.54</ele>
        <time>2023-05-13T15:12:38.000Z</time>
      </trkpt>
      <trkpt lat="47.61343" lon="-2.74837">
        <ele>8.44</ele>
        <time>2023-05-13T15:12:54.000Z</time>
      </trkpt>
      <trkpt lat="47.61339" lon="-2.74811">
        <ele>9.4</ele>
        <time>2023-05-13T15:13:09.000Z</time>
      </trkpt>
      <trkpt lat="47.61338" lon="-2.74784">
        <ele>8.94</ele>
        <time>2023-05-13T15:13:26.000Z</time>
      </trkpt>
      <trkpt lat="47.61334" lon="-2.74758">
        <ele>8.01</ele>
        <time>2023-05-13T15:13:42.000Z</time>
      </trkpt>
      <trkpt lat="47.61328" lon="-2.74732">
        <ele>12.66</ele>
        <time>2023-05-13T15:13:57.000Z</time>
      </trkpt>
      <trkpt lat="47.61317" lon="-2.74709">
        <ele>13.15</ele>
        <time>2023-05-13T15:14:12.000Z</time>
      </trkpt>
      <trkpt lat="47.61313" lon="-2.74682">
        <ele>8.48</ele>
        <time>2023-05-13T15:14:54.000Z</time>
      </trkpt>
      <trkpt lat="47.61305" lon="-2.74657">
        <ele>6.09</ele>
        <time>2023-05-13T15:15:20.000Z</time>
      </trkpt>
      <trkpt lat="47.61297" lon="-2.74632">
        <ele>7.86</ele>
        <time>2023-05-13T15:15:42.000Z</time>
      </trkpt>
      <trkpt lat="47.61286" lon="-2.74609">
        <ele>9.14</ele>
        <time>2023-05-13T15:15:56.000Z</time>
      </trkpt>
      <trkpt lat="47.61275" lon="-2.74587">
        <ele>7.6</ele>
        <time>2023-05-13T15:16:13.000Z</time>
      </trkpt>
      <trkpt lat="47.61271" lon="-2.74561">
        <ele>5.51</ele>
        <time>2023-05-13T15:16:29.000Z</time>
      </trkpt>
      <trkpt lat="47.61265" lon="-2.74534">
        <ele>5.96</ele>
        <time>2023-05-13T15:16:44.000Z</time>
      </trkpt>
      <trkpt lat="47.61248" lon="-2.74546">
        <ele>7.37</ele>
        <time>2023-05-13T15:18:57.000Z</time>
      </trkpt>
      <trkpt lat="47.61235" lon="-2.74526">
        <ele>9.91</ele>
        <time>2023-05-13T15:19:12.000Z</time>
      </trkpt>
      <trkpt lat="47.61222" lon="-2.74508">
        <ele>9.01</ele>
        <time>2023-05-13T15:19:26.000Z</time>
      </trkpt>
      <trkpt lat="47.61209" lon="-2.74488">
        <ele>8.64</ele>
        <time>2023-05-13T15:19:39.000Z</time>
      </trkpt>
      <trkpt lat="47.61195" lon="-2.74469">
        <ele>7.64</ele>
        <time>2023-05-13T15:19:54.000Z</time>
      </trkpt>
      <trkpt lat="47.6118" lon="-2.74453">
        <ele>8.22</ele>
        <time>2023-05-13T15:20:08.000Z</time>
      </trkpt>
      <trkpt lat="47.61165" lon="-2.74439">
        <ele>7.38</ele>
        <time>2023-05-13T15:20:23.000Z</time>
      </trkpt>
      <trkpt lat="47.61149" lon="-2.74424">
        <ele>9.45</ele>
        <time>2023-05-13T15:20:37.000Z</time>
      </trkpt>
      <trkpt lat="47.61134" lon="-2.74406">
        <ele>9.77</ele>
        <time>2023-05-13T15:20:51.000Z</time>
      </trkpt>
      <trkpt lat="47.61119" lon="-2.7439">
        <ele>9.62</ele>
        <time>2023-05-13T15:21:06.000Z</time>
      </trkpt>
      <trkpt lat="47.61103" lon="-2.74376">
        <ele>10.68</ele>
        <time>2023-05-13T15:21:20.000Z</time>
      </trkpt>
      <trkpt lat="47.61088" lon="-2.7436">
        <ele>9.97</ele>
        <time>2023-05-13T15:21:36.000Z</time>
      </trkpt>
      <trkpt lat="47.61075" lon="-2.74343">
        <ele>7.06</ele>
        <time>2023-05-13T15:21:50.000Z</time>
      </trkpt>
      <trkpt lat="47.61059" lon="-2.74327">
        <ele>1.32</ele>
        <time>2023-05-13T15:22:05.000Z</time>
      </trkpt>
      <trkpt lat="47.61046" lon="-2.7431">
        <ele>3.31</ele>
        <time>2023-05-13T15:22:19.000Z</time>
      </trkpt>
      <trkpt lat="47.61032" lon="-2.74291">
        <ele>5.83</ele>
        <time>2023-05-13T15:22:34.000Z</time>
      </trkpt>
      <trkpt lat="47.61016" lon="-2.74277">
        <ele>3.68</ele>
        <time>2023-05-13T15:22:49.000Z</time>
      </trkpt>
      <trkpt lat="47.61003" lon="-2.74258">
        <ele>4.76</ele>
        <time>2023-05-13T15:23:03.000Z</time>
      </trkpt>
      <trkpt lat="47.60987" lon="-2.74242">
        <ele>7.32</ele>
        <time>2023-05-13T15:23:21.000Z</time>
      </trkpt>
      <trkpt lat="47.60973" lon="-2.74222">
        <ele>7.55</ele>
        <time>2023-05-13T15:23:33.000Z</time>
      </trkpt>
      <trkpt lat="47.60956" lon="-2.74208">
        <ele>1.49</ele>
        <time>2023-05-13T15:23:48.000Z</time>
      </trkpt>
      <trkpt lat="47.6094" lon="-2.74221">
        <ele>-1.57</ele>
        <time>2023-05-13T15:24:07.000Z</time>
      </trkpt>
      <trkpt lat="47.60923" lon="-2.74229">
        <ele>2.17</ele>
        <time>2023-05-13T15:24:24.000Z</time>
      </trkpt>
      <trkpt lat="47.60907" lon="-2.74215">
        <ele>4.87</ele>
        <time>2023-05-13T15:24:37.000Z</time>
      </trkpt>
      <trkpt lat="47.6089" lon="-2.74204">
        <ele>5.76</ele>
        <time>2023-05-13T15:24:50.000Z</time>
      </trkpt>
      <trkpt lat="47.60874" lon="-2.7419">
        <ele>6.87</ele>
        <time>2023-05-13T15:25:05.000Z</time>
      </trkpt>
      <trkpt lat="47.60858" lon="-2.74176">
        <ele>4.1</ele>
        <time>2023-05-13T15:25:20.000Z</time>
      </trkpt>
      <trkpt lat="47.60842" lon="-2.74163">
        <ele>3.84</ele>
        <time>2023-05-13T15:25:36.000Z</time>
      </trkpt>
      <trkpt lat="47.60829" lon="-2.74142">
        <ele>1.02</ele>
        <time>2023-05-13T15:25:50.000Z</time>
      </trkpt>
      <trkpt lat="47.60818" lon="-2.74121">
        <ele>0.12</ele>
        <time>2023-05-13T15:26:05.000Z</time>
      </trkpt>
      <trkpt lat="47.60804" lon="-2.74104">
        <ele>1.26</ele>
        <time>2023-05-13T15:26:19.000Z</time>
      </trkpt>
      <trkpt lat="47.60786" lon="-2.74093">
        <ele>0.86</ele>
        <time>2023-05-13T15:26:33.000Z</time>
      </trkpt>
      <trkpt lat="47.60769" lon="-2.74082">
        <ele>0.71</ele>
        <time>2023-05-13T15:26:50.000Z</time>
      </trkpt>
      <trkpt lat="47.60754" lon="-2.74068">
        <ele>0.69</ele>
        <time>2023-05-13T15:27:01.000Z</time>
      </trkpt>
      <trkpt lat="47.60737" lon="-2.74056">
        <ele>1.27</ele>
        <time>2023-05-13T15:27:14.000Z</time>
      </trkpt>
      <trkpt lat="47.60718" lon="-2.74052">
        <ele>1.63</ele>
        <time>2023-05-13T15:27:33.000Z</time>
      </trkpt>
      <trkpt lat="47.60699" lon="-2.74051">
        <ele>0.79</ele>
        <time>2023-05-13T15:27:47.000Z</time>
      </trkpt>
      <trkpt lat="47.60681" lon="-2.74046">
        <ele>5.91</ele>
        <time>2023-05-13T15:28:02.000Z</time>
      </trkpt>
      <trkpt lat="47.60662" lon="-2.74045">
        <ele>9.07</ele>
        <time>2023-05-13T15:28:18.000Z</time>
      </trkpt>
      <trkpt lat="47.60643" lon="-2.74049">
        <ele>7.53</ele>
        <time>2023-05-13T15:28:32.000Z</time>
      </trkpt>
      <trkpt lat="47.60625" lon="-2.74043">
        <ele>5.23</ele>
        <time>2023-05-13T15:28:44.000Z</time>
      </trkpt>
      <trkpt lat="47.60607" lon="-2.74036">
        <ele>5.67</ele>
        <time>2023-05-13T15:28:59.000Z</time>
      </trkpt>
      <trkpt lat="47.6059" lon="-2.74047">
        <ele>6.86</ele>
        <time>2023-05-13T15:29:13.000Z</time>
      </trkpt>
      <trkpt lat="47.60573" lon="-2.74059">
        <ele>10.65</ele>
        <time>2023-05-13T15:29:29.000Z</time>
      </trkpt>
      <trkpt lat="47.60557" lon="-2.74071">
        <ele>8.76</ele>
        <time>2023-05-13T15:29:44.000Z</time>
      </trkpt>
      <trkpt lat="47.60539" lon="-2.74077">
        <ele>9.19</ele>
        <time>2023-05-13T15:30:02.000Z</time>
      </trkpt>
      <trkpt lat="47.60526" lon="-2.74057">
        <ele>6.65</ele>
        <time>2023-05-13T15:30:58.000Z</time>
      </trkpt>
      <trkpt lat="47.60514" lon="-2.74034">
        <ele>9.09</ele>
        <time>2023-05-13T15:31:14.000Z</time>
      </trkpt>
      <trkpt lat="47.60501" lon="-2.74015">
        <ele>2.12</ele>
        <time>2023-05-13T15:34:25.000Z</time>
      </trkpt>
      <trkpt lat="47.60485" lon="-2.74003">
        <ele>3.09</ele>
        <time>2023-05-13T15:34:45.000Z</time>
      </trkpt>
      <trkpt lat="47.60468" lon="-2.73994">
        <ele>3.07</ele>
        <time>2023-05-13T15:35:01.000Z</time>
      </trkpt>
      <trkpt lat="47.60449" lon="-2.74">
        <ele>0.79</ele>
        <time>2023-05-13T15:35:29.000Z</time>
      </trkpt>
      <trkpt lat="47.60431" lon="-2.74006">
        <ele>-0.95</ele>
        <time>2023-05-13T15:35:46.000Z</time>
      </trkpt>
      <trkpt lat="47.60414" lon="-2.73992">
        <ele>-0.15</ele>
        <time>2023-05-13T15:36:05.000Z</time>
      </trkpt>
      <trkpt lat="47.60397" lon="-2.73998">
        <ele>-1</ele>
        <time>2023-05-13T15:36:22.000Z</time>
      </trkpt>
      <trkpt lat="47.60386" lon="-2.73975">
        <ele>-2.58</ele>
        <time>2023-05-13T15:36:40.000Z</time>
      </trkpt>
      <trkpt lat="47.6038" lon="-2.73949">
        <ele>1.53</ele>
        <time>2023-05-13T15:37:16.000Z</time>
      </trkpt>
      <trkpt lat="47.60368" lon="-2.73929">
        <ele>2.86</ele>
        <time>2023-05-13T15:37:35.000Z</time>
      </trkpt>
      <trkpt lat="47.60358" lon="-2.73906">
        <ele>3.92</ele>
        <time>2023-05-13T15:37:53.000Z</time>
      </trkpt>
      <trkpt lat="47.60348" lon="-2.73884">
        <ele>5.78</ele>
        <time>2023-05-13T15:38:28.000Z</time>
      </trkpt>
      <trkpt lat="47.60336" lon="-2.73864">
        <ele>5.49</ele>
        <time>2023-05-13T15:38:47.000Z</time>
      </trkpt>
      <trkpt lat="47.60323" lon="-2.73845">
        <ele>5.51</ele>
        <time>2023-05-13T15:39:02.000Z</time>
      </trkpt>
      <trkpt lat="47.60311" lon="-2.73823">
        <ele>5.24</ele>
        <time>2023-05-13T15:39:19.000Z</time>
      </trkpt>
      <trkpt lat="47.60297" lon="-2.73805">
        <ele>3.87</ele>
        <time>2023-05-13T15:39:37.000Z</time>
      </trkpt>
      <trkpt lat="47.60286" lon="-2.73783">
        <ele>3.1</ele>
        <time>2023-05-13T15:39:55.000Z</time>
      </trkpt>
      <trkpt lat="47.60273" lon="-2.73764">
        <ele>5.44</ele>
        <time>2023-05-13T15:40:13.000Z</time>
      </trkpt>
      <trkpt lat="47.60259" lon="-2.73745">
        <ele>8.05</ele>
        <time>2023-05-13T15:40:32.000Z</time>
      </trkpt>
      <trkpt lat="47.60243" lon="-2.73733">
        <ele>6.38</ele>
        <time>2023-05-13T15:40:48.000Z</time>
      </trkpt>
      <trkpt lat="47.60257" lon="-2.73715">
        <ele>4.91</ele>
        <time>2023-05-13T15:41:33.000Z</time>
      </trkpt>
      <trkpt lat="47.60273" lon="-2.73701">
        <ele>9.16</ele>
        <time>2023-05-13T15:41:50.000Z</time>
      </trkpt>
      <trkpt lat="47.60272" lon="-2.73674">
        <ele>10.6</ele>
        <time>2023-05-13T15:42:31.000Z</time>
      </trkpt>
      <trkpt lat="47.6026" lon="-2.73653">
        <ele>10.75</ele>
        <time>2023-05-13T15:42:49.000Z</time>
      </trkpt>
      <trkpt lat="47.60249" lon="-2.73631">
        <ele>10.66</ele>
        <time>2023-05-13T15:43:05.000Z</time>
      </trkpt>
      <trkpt lat="47.60237" lon="-2.7361">
        <ele>9.87</ele>
        <time>2023-05-13T15:43:19.000Z</time>
      </trkpt>
      <trkpt lat="47.60226" lon="-2.73586">
        <ele>10.12</ele>
        <time>2023-05-13T15:43:32.000Z</time>
      </trkpt>
      <trkpt lat="47.60213" lon="-2.73565">
        <ele>5.66</ele>
        <time>2023-05-13T15:43:49.000Z</time>
      </trkpt>
      <trkpt lat="47.60205" lon="-2.7354">
        <ele>6.65</ele>
        <time>2023-05-13T15:44:05.000Z</time>
      </trkpt>
      <trkpt lat="47.602" lon="-2.73513">
        <ele>8.85</ele>
        <time>2023-05-13T15:44:20.000Z</time>
      </trkpt>
      <trkpt lat="47.60194" lon="-2.73488">
        <ele>9.88</ele>
        <time>2023-05-13T15:44:34.000Z</time>
      </trkpt>
      <trkpt lat="47.60185" lon="-2.73463">
        <ele>9.68</ele>
        <time>2023-05-13T15:44:50.000Z</time>
      </trkpt>
      <trkpt lat="47.60171" lon="-2.73445">
        <ele>9.87</ele>
        <time>2023-05-13T15:45:06.000Z</time>
      </trkpt>
      <trkpt lat="47.60155" lon="-2.73428">
        <ele>12.83</ele>
        <time>2023-05-13T15:45:18.000Z</time>
      </trkpt>
      <trkpt lat="47.60139" lon="-2.73414">
        <ele>12.08</ele>
        <time>2023-05-13T15:45:33.000Z</time>
      </trkpt>
      <trkpt lat="47.60123" lon="-2.73398">
        <ele>13.26</ele>
        <time>2023-05-13T15:45:49.000Z</time>
      </trkpt>
      <trkpt lat="47.60108" lon="-2.73381">
        <ele>13.11</ele>
        <time>2023-05-13T15:46:05.000Z</time>
      </trkpt>
      <trkpt lat="47.60095" lon="-2.73361">
        <ele>12.05</ele>
        <time>2023-05-13T15:46:20.000Z</time>
      </trkpt>
      <trkpt lat="47.60082" lon="-2.7334">
        <ele>11.31</ele>
        <time>2023-05-13T15:46:47.000Z</time>
      </trkpt>
      <trkpt lat="47.60072" lon="-2.73318">
        <ele>8.17</ele>
        <time>2023-05-13T15:47:04.000Z</time>
      </trkpt>
      <trkpt lat="47.60058" lon="-2.733">
        <ele>7.01</ele>
        <time>2023-05-13T15:47:18.000Z</time>
      </trkpt>
      <trkpt lat="47.60039" lon="-2.73299">
        <ele>9.66</ele>
        <time>2023-05-13T15:47:38.000Z</time>
      </trkpt>
      <trkpt lat="47.60023" lon="-2.73314">
        <ele>7.66</ele>
        <time>2023-05-13T15:47:57.000Z</time>
      </trkpt>
      <trkpt lat="47.60005" lon="-2.73323">
        <ele>9.34</ele>
        <time>2023-05-13T15:48:15.000Z</time>
      </trkpt>
      <trkpt lat="47.59987" lon="-2.73323">
        <ele>4.35</ele>
        <time>2023-05-13T15:48:37.000Z</time>
      </trkpt>
      <trkpt lat="47.59972" lon="-2.73306">
        <ele>3.25</ele>
        <time>2023-05-13T15:49:01.000Z</time>
      </trkpt>
      <trkpt lat="47.59963" lon="-2.73282">
        <ele>6.33</ele>
        <time>2023-05-13T15:49:18.000Z</time>
      </trkpt>
      <trkpt lat="47.59948" lon="-2.73264">
        <ele>3.67</ele>
        <time>2023-05-13T15:49:34.000Z</time>
      </trkpt>
      <trkpt lat="47.59935" lon="-2.73247">
        <ele>4.54</ele>
        <time>2023-05-13T15:49:49.000Z</time>
      </trkpt>
      <trkpt lat="47.59919" lon="-2.73231">
        <ele>2.25</ele>
        <time>2023-05-13T15:50:06.000Z</time>
      </trkpt>
      <trkpt lat="47.59904" lon="-2.73215">
        <ele>3.62</ele>
        <time>2023-05-13T15:50:19.000Z</time>
      </trkpt>
      <trkpt lat="47.5989" lon="-2.73197">
        <ele>3.46</ele>
        <time>2023-05-13T15:50:34.000Z</time>
      </trkpt>
      <trkpt lat="47.59893" lon="-2.7317">
        <ele>3.15</ele>
        <time>2023-05-13T15:51:06.000Z</time>
      </trkpt>
      <trkpt lat="47.59892" lon="-2.73143">
        <ele>3.97</ele>
        <time>2023-05-13T15:51:42.000Z</time>
      </trkpt>
      <trkpt lat="47.599" lon="-2.73118">
        <ele>3.46</ele>
        <time>2023-05-13T15:52:01.000Z</time>
      </trkpt>
      <trkpt lat="47.5991" lon="-2.73094">
        <ele>3.58</ele>
        <time>2023-05-13T15:52:17.000Z</time>
      </trkpt>
      <trkpt lat="47.59929" lon="-2.73093">
        <ele>7.16</ele>
        <time>2023-05-13T15:52:32.000Z</time>
      </trkpt>
      <trkpt lat="47.59943" lon="-2.7311">
        <ele>7.85</ele>
        <time>2023-05-13T15:52:48.000Z</time>
      </trkpt>
      <trkpt lat="47.59953" lon="-2.73133">
        <ele>7.66</ele>
        <time>2023-05-13T15:53:05.000Z</time>
      </trkpt>
      <trkpt lat="47.59971" lon="-2.73139">
        <ele>6.55</ele>
        <time>2023-05-13T15:53:22.000Z</time>
      </trkpt>
      <trkpt lat="47.59988" lon="-2.73154">
        <ele>5.17</ele>
        <time>2023-05-13T15:53:38.000Z</time>
      </trkpt>
      <trkpt lat="47.60004" lon="-2.73166">
        <ele>2.43</ele>
        <time>2023-05-13T15:53:52.000Z</time>
      </trkpt>
      <trkpt lat="47.6002" lon="-2.73182">
        <ele>4.23</ele>
        <time>2023-05-13T15:54:07.000Z</time>
      </trkpt>
      <trkpt lat="47.60034" lon="-2.732">
        <ele>3.91</ele>
        <time>2023-05-13T15:54:23.000Z</time>
      </trkpt>
      <trkpt lat="47.60051" lon="-2.73208">
        <ele>2.2</ele>
        <time>2023-05-13T15:54:38.000Z</time>
      </trkpt>
      <trkpt lat="47.6007" lon="-2.7321">
        <ele>4.13</ele>
        <time>2023-05-13T15:54:53.000Z</time>
      </trkpt>
      <trkpt lat="47.60088" lon="-2.73203">
        <ele>8.26</ele>
        <time>2023-05-13T15:55:10.000Z</time>
      </trkpt>
      <trkpt lat="47.60107" lon="-2.73206">
        <ele>5.69</ele>
        <time>2023-05-13T15:55:26.000Z</time>
      </trkpt>
      <trkpt lat="47.60125" lon="-2.73212">
        <ele>6.86</ele>
        <time>2023-05-13T15:55:41.000Z</time>
      </trkpt>
      <trkpt lat="47.60144" lon="-2.73215">
        <ele>6.55</ele>
        <time>2023-05-13T15:55:57.000Z</time>
      </trkpt>
      <trkpt lat="47.60161" lon="-2.73229">
        <ele>2.96</ele>
        <time>2023-05-13T15:56:12.000Z</time>
      </trkpt>
      <trkpt lat="47.60173" lon="-2.73249">
        <ele>2.41</ele>
        <time>2023-05-13T15:56:27.000Z</time>
      </trkpt>
      <trkpt lat="47.60187" lon="-2.73269">
        <ele>4.34</ele>
        <time>2023-05-13T15:56:41.000Z</time>
      </trkpt>
      <trkpt lat="47.60199" lon="-2.73291">
        <ele>3.51</ele>
        <time>2023-05-13T15:56:56.000Z</time>
      </trkpt>
      <trkpt lat="47.6021" lon="-2.73314">
        <ele>4.45</ele>
        <time>2023-05-13T15:57:11.000Z</time>
      </trkpt>
      <trkpt lat="47.60221" lon="-2.73337">
        <ele>3.6</ele>
        <time>2023-05-13T15:57:26.000Z</time>
      </trkpt>
      <trkpt lat="47.60234" lon="-2.73355">
        <ele>4.94</ele>
        <time>2023-05-13T15:57:40.000Z</time>
      </trkpt>
      <trkpt lat="47.60246" lon="-2.73376">
        <ele>3.3</ele>
        <time>2023-05-13T15:57:55.000Z</time>
      </trkpt>
      <trkpt lat="47.60257" lon="-2.734">
        <ele>2.53</ele>
        <time>2023-05-13T15:58:10.000Z</time>
      </trkpt>
      <trkpt lat="47.60267" lon="-2.73422">
        <ele>6.81</ele>
        <time>2023-05-13T15:58:22.000Z</time>
      </trkpt>
      <trkpt lat="47.60284" lon="-2.7345">
        <ele>28.27</ele>
        <time>2023-05-13T15:58:34.000Z</time>
      </trkpt>
      <trkpt lat="47.60301" lon="-2.7346">
        <ele>9.56</ele>
        <time>2023-05-13T15:58:55.000Z</time>
      </trkpt>
      <trkpt lat="47.60313" lon="-2.73481">
        <ele>6.88</ele>
        <time>2023-05-13T15:59:11.000Z</time>
      </trkpt>
      <trkpt lat="47.60322" lon="-2.73506">
        <ele>7</ele>
        <time>2023-05-13T15:59:26.000Z</time>
      </trkpt>
      <trkpt lat="47.60334" lon="-2.73527">
        <ele>5.12</ele>
        <time>2023-05-13T15:59:41.000Z</time>
      </trkpt>
      <trkpt lat="47.60351" lon="-2.73535">
        <ele>4.53</ele>
        <time>2023-05-13T15:59:58.000Z</time>
      </trkpt>
      <trkpt lat="47.60361" lon="-2.73511">
        <ele>4.85</ele>
        <time>2023-05-13T16:00:15.000Z</time>
      </trkpt>
      <trkpt lat="47.6037" lon="-2.73486">
        <ele>5.37</ele>
        <time>2023-05-13T16:00:30.000Z</time>
      </trkpt>
      <trkpt lat="47.60386" lon="-2.73473">
        <ele>6.78</ele>
        <time>2023-05-13T16:00:48.000Z</time>
      </trkpt>
      <trkpt lat="47.60406" lon="-2.73472">
        <ele>6.11</ele>
        <time>2023-05-13T16:01:03.000Z</time>
      </trkpt>
      <trkpt lat="47.60425" lon="-2.73478">
        <ele>2.95</ele>
        <time>2023-05-13T16:01:19.000Z</time>
      </trkpt>
      <trkpt lat="47.60442" lon="-2.73484">
        <ele>3.43</ele>
        <time>2023-05-13T16:01:33.000Z</time>
      </trkpt>
      <trkpt lat="47.60461" lon="-2.73488">
        <ele>5.92</ele>
        <time>2023-05-13T16:01:47.000Z</time>
      </trkpt>
      <trkpt lat="47.60479" lon="-2.73493">
        <ele>4.97</ele>
        <time>2023-05-13T16:01:59.000Z</time>
      </trkpt>
      <trkpt lat="47.60497" lon="-2.73497">
        <ele>4.81</ele>
        <time>2023-05-13T16:02:12.000Z</time>
      </trkpt>
      <trkpt lat="47.60516" lon="-2.73499">
        <ele>3.4</ele>
        <time>2023-05-13T16:02:26.000Z</time>
      </trkpt>
      <trkpt lat="47.60534" lon="-2.73502">
        <ele>1.92</ele>
        <time>2023-05-13T16:02:42.000Z</time>
      </trkpt>
      <trkpt lat="47.60553" lon="-2.73507">
        <ele>2.95</ele>
        <time>2023-05-13T16:02:56.000Z</time>
      </trkpt>
      <trkpt lat="47.60571" lon="-2.73512">
        <ele>3.48</ele>
        <time>2023-05-13T16:03:14.000Z</time>
      </trkpt>
      <trkpt lat="47.60586" lon="-2.7353">
        <ele>1.14</ele>
        <time>2023-05-13T16:03:27.000Z</time>
      </trkpt>
      <trkpt lat="47.60605" lon="-2.7353">
        <ele>2.78</ele>
        <time>2023-05-13T16:03:40.000Z</time>
      </trkpt>
      <trkpt lat="47.60624" lon="-2.73532">
        <ele>4.95</ele>
        <time>2023-05-13T16:03:55.000Z</time>
      </trkpt>
      <trkpt lat="47.60641" lon="-2.7352">
        <ele>6.59</ele>
        <time>2023-05-13T16:04:14.000Z</time>
      </trkpt>
      <trkpt lat="47.60642" lon="-2.73492">
        <ele>6.12</ele>
        <time>2023-05-13T16:04:30.000Z</time>
      </trkpt>
      <trkpt lat="47.60643" lon="-2.73465">
        <ele>5.57</ele>
        <time>2023-05-13T16:04:45.000Z</time>
      </trkpt>
      <trkpt lat="47.60645" lon="-2.73437">
        <ele>5.53</ele>
        <time>2023-05-13T16:05:02.000Z</time>
      </trkpt>
      <trkpt lat="47.60646" lon="-2.73409">
        <ele>5.44</ele>
        <time>2023-05-13T16:05:17.000Z</time>
      </trkpt>
      <trkpt lat="47.60647" lon="-2.73382">
        <ele>11.72</ele>
        <time>2023-05-13T16:05:46.000Z</time>
      </trkpt>
      <trkpt lat="47.60646" lon="-2.73355">
        <ele>14.19</ele>
        <time>2023-05-13T16:06:54.000Z</time>
      </trkpt>
      <trkpt lat="47.60645" lon="-2.73329">
        <ele>9.28</ele>
        <time>2023-05-13T16:07:10.000Z</time>
      </trkpt>
      <trkpt lat="47.60644" lon="-2.73301">
        <ele>8.96</ele>
        <time>2023-05-13T16:07:26.000Z</time>
      </trkpt>
      <trkpt lat="47.6064" lon="-2.73274">
        <ele>11.95</ele>
        <time>2023-05-13T16:07:40.000Z</time>
      </trkpt>
      <trkpt lat="47.60635" lon="-2.73247">
        <ele>8.84</ele>
        <time>2023-05-13T16:07:55.000Z</time>
      </trkpt>
      <trkpt lat="47.60631" lon="-2.7322">
        <ele>8.8</ele>
        <time>2023-05-13T16:08:10.000Z</time>
      </trkpt>
      <trkpt lat="47.60633" lon="-2.73192">
        <ele>7.92</ele>
        <time>2023-05-13T16:08:24.000Z</time>
      </trkpt>
      <trkpt lat="47.60641" lon="-2.73167">
        <ele>8.68</ele>
        <time>2023-05-13T16:08:39.000Z</time>
      </trkpt>
      <trkpt lat="47.60651" lon="-2.73144">
        <ele>9.08</ele>
        <time>2023-05-13T16:08:52.000Z</time>
      </trkpt>
      <trkpt lat="47.60664" lon="-2.73123">
        <ele>8.78</ele>
        <time>2023-05-13T16:09:07.000Z</time>
      </trkpt>
      <trkpt lat="47.60676" lon="-2.73102">
        <ele>8.31</ele>
        <time>2023-05-13T16:09:18.000Z</time>
      </trkpt>
      <trkpt lat="47.60693" lon="-2.7309">
        <ele>9.46</ele>
        <time>2023-05-13T16:09:32.000Z</time>
      </trkpt>
      <trkpt lat="47.60707" lon="-2.73072">
        <ele>11.49</ele>
        <time>2023-05-13T16:09:46.000Z</time>
      </trkpt>
      <trkpt lat="47.60722" lon="-2.73055">
        <ele>12.07</ele>
        <time>2023-05-13T16:09:59.000Z</time>
      </trkpt>
      <trkpt lat="47.60734" lon="-2.73033">
        <ele>11.82</ele>
        <time>2023-05-13T16:10:14.000Z</time>
      </trkpt>
      <trkpt lat="47.60749" lon="-2.73017">
        <ele>10.49</ele>
        <time>2023-05-13T16:10:28.000Z</time>
      </trkpt>
      <trkpt lat="47.60764" lon="-2.73004">
        <ele>10.88</ele>
        <time>2023-05-13T16:10:41.000Z</time>
      </trkpt>
      <trkpt lat="47.60781" lon="-2.72992">
        <ele>9.71</ele>
        <time>2023-05-13T16:10:53.000Z</time>
      </trkpt>
      <trkpt lat="47.608" lon="-2.7299">
        <ele>12.78</ele>
        <time>2023-05-13T16:11:08.000Z</time>
      </trkpt>
      <trkpt lat="47.60819" lon="-2.72992">
        <ele>11.24</ele>
        <time>2023-05-13T16:11:21.000Z</time>
      </trkpt>
      <trkpt lat="47.60838" lon="-2.72995">
        <ele>12.8</ele>
        <time>2023-05-13T16:11:34.000Z</time>
      </trkpt>
      <trkpt lat="47.60856" lon="-2.72995">
        <ele>13.31</ele>
        <time>2023-05-13T16:11:47.000Z</time>
      </trkpt>
      <trkpt lat="47.60875" lon="-2.72997">
        <ele>15.48</ele>
        <time>2023-05-13T16:12:01.000Z</time>
      </trkpt>
      <trkpt lat="47.60894" lon="-2.73001">
        <ele>13.39</ele>
        <time>2023-05-13T16:12:13.000Z</time>
      </trkpt>
      <trkpt lat="47.60913" lon="-2.73003">
        <ele>8.9</ele>
        <time>2023-05-13T16:12:27.000Z</time>
      </trkpt>
      <trkpt lat="47.60932" lon="-2.73007">
        <ele>7.68</ele>
        <time>2023-05-13T16:12:41.000Z</time>
      </trkpt>
      <trkpt lat="47.6095" lon="-2.73008">
        <ele>7.21</ele>
        <time>2023-05-13T16:12:54.000Z</time>
      </trkpt>
      <trkpt lat="47.60969" lon="-2.7301">
        <ele>8.1</ele>
        <time>2023-05-13T16:13:06.000Z</time>
      </trkpt>
      <trkpt lat="47.60987" lon="-2.73013">
        <ele>8.16</ele>
        <time>2023-05-13T16:13:19.000Z</time>
      </trkpt>
      <trkpt lat="47.61006" lon="-2.73017">
        <ele>9.1</ele>
        <time>2023-05-13T16:13:32.000Z</time>
      </trkpt>
      <trkpt lat="47.61025" lon="-2.73019">
        <ele>9.66</ele>
        <time>2023-05-13T16:13:45.000Z</time>
      </trkpt>
      <trkpt lat="47.61043" lon="-2.7302">
        <ele>8.82</ele>
        <time>2023-05-13T16:13:58.000Z</time>
      </trkpt>
      <trkpt lat="47.61062" lon="-2.73022">
        <ele>6.06</ele>
        <time>2023-05-13T16:14:09.000Z</time>
      </trkpt>
      <trkpt lat="47.61081" lon="-2.73027">
        <ele>7.14</ele>
        <time>2023-05-13T16:14:22.000Z</time>
      </trkpt>
      <trkpt lat="47.61099" lon="-2.73028">
        <ele>7.69</ele>
        <time>2023-05-13T16:14:34.000Z</time>
      </trkpt>
      <trkpt lat="47.61118" lon="-2.7303">
        <ele>8.92</ele>
        <time>2023-05-13T16:14:46.000Z</time>
      </trkpt>
      <trkpt lat="47.61136" lon="-2.73033">
        <ele>6.63</ele>
        <time>2023-05-13T16:14:59.000Z</time>
      </trkpt>
      <trkpt lat="47.61156" lon="-2.73033">
        <ele>7.44</ele>
        <time>2023-05-13T16:15:11.000Z</time>
      </trkpt>
      <trkpt lat="47.61174" lon="-2.73035">
        <ele>7.73</ele>
        <time>2023-05-13T16:15:23.000Z</time>
      </trkpt>
      <trkpt lat="47.61193" lon="-2.7304">
        <ele>4.27</ele>
        <time>2023-05-13T16:15:38.000Z</time>
      </trkpt>
      <trkpt lat="47.61211" lon="-2.73043">
        <ele>5.3</ele>
        <time>2023-05-13T16:15:49.000Z</time>
      </trkpt>
      <trkpt lat="47.6123" lon="-2.73045">
        <ele>7.7</ele>
        <time>2023-05-13T16:16:01.000Z</time>
      </trkpt>
      <trkpt lat="47.61249" lon="-2.73049">
        <ele>4.95</ele>
        <time>2023-05-13T16:16:15.000Z</time>
      </trkpt>
      <trkpt lat="47.61268" lon="-2.73053">
        <ele>2.88</ele>
        <time>2023-05-13T16:16:29.000Z</time>
      </trkpt>
      <trkpt lat="47.61286" lon="-2.73056">
        <ele>2.02</ele>
        <time>2023-05-13T16:16:40.000Z</time>
      </trkpt>
      <trkpt lat="47.61304" lon="-2.73058">
        <ele>2.44</ele>
        <time>2023-05-13T16:16:52.000Z</time>
      </trkpt>
      <trkpt lat="47.61322" lon="-2.7306">
        <ele>4.41</ele>
        <time>2023-05-13T16:17:05.000Z</time>
      </trkpt>
      <trkpt lat="47.6134" lon="-2.73062">
        <ele>3.5</ele>
        <time>2023-05-13T16:17:16.000Z</time>
      </trkpt>
      <trkpt lat="47.61359" lon="-2.73067">
        <ele>4.77</ele>
        <time>2023-05-13T16:17:31.000Z</time>
      </trkpt>
      <trkpt lat="47.61377" lon="-2.73069">
        <ele>3.77</ele>
        <time>2023-05-13T16:17:44.000Z</time>
      </trkpt>
      <trkpt lat="47.61396" lon="-2.73072">
        <ele>3.79</ele>
        <time>2023-05-13T16:17:57.000Z</time>
      </trkpt>
      <trkpt lat="47.61415" lon="-2.73075">
        <ele>5.28</ele>
        <time>2023-05-13T16:18:11.000Z</time>
      </trkpt>
      <trkpt lat="47.6143" lon="-2.73091">
        <ele>6.41</ele>
        <time>2023-05-13T16:18:25.000Z</time>
      </trkpt>
      <trkpt lat="47.61446" lon="-2.73103">
        <ele>5.91</ele>
        <time>2023-05-13T16:18:41.000Z</time>
      </trkpt>
      <trkpt lat="47.61465" lon="-2.7311">
        <ele>3.33</ele>
        <time>2023-05-13T16:18:57.000Z</time>
      </trkpt>
      <trkpt lat="47.61478" lon="-2.73129">
        <ele>4.68</ele>
        <time>2023-05-13T16:19:10.000Z</time>
      </trkpt>
      <trkpt lat="47.61491" lon="-2.73148">
        <ele>6.24</ele>
        <time>2023-05-13T16:19:22.000Z</time>
      </trkpt>
      <trkpt lat="47.61504" lon="-2.73167">
        <ele>4.5</ele>
        <time>2023-05-13T16:19:36.000Z</time>
      </trkpt>
      <trkpt lat="47.61518" lon="-2.73188">
        <ele>7.47</ele>
        <time>2023-05-13T16:19:49.000Z</time>
      </trkpt>
      <trkpt lat="47.61533" lon="-2.73206">
        <ele>7.37</ele>
        <time>2023-05-13T16:20:03.000Z</time>
      </trkpt>
      <trkpt lat="47.61547" lon="-2.73225">
        <ele>4.94</ele>
        <time>2023-05-13T16:20:18.000Z</time>
      </trkpt>
      <trkpt lat="47.61559" lon="-2.73244">
        <ele>8.91</ele>
        <time>2023-05-13T16:20:31.000Z</time>
      </trkpt>
      <trkpt lat="47.61573" lon="-2.73264">
        <ele>7.27</ele>
        <time>2023-05-13T16:20:45.000Z</time>
      </trkpt>
      <trkpt lat="47.61587" lon="-2.73284">
        <ele>8.72</ele>
        <time>2023-05-13T16:20:59.000Z</time>
      </trkpt>
      <trkpt lat="47.61601" lon="-2.73303">
        <ele>8.71</ele>
        <time>2023-05-13T16:21:13.000Z</time>
      </trkpt>
      <trkpt lat="47.61615" lon="-2.7332">
        <ele>10.36</ele>
        <time>2023-05-13T16:21:26.000Z</time>
      </trkpt>
      <trkpt lat="47.61626" lon="-2.73342">
        <ele>9.71</ele>
        <time>2023-05-13T16:21:41.000Z</time>
      </trkpt>
      <trkpt lat="47.61635" lon="-2.73365">
        <ele>10.9</ele>
        <time>2023-05-13T16:21:55.000Z</time>
      </trkpt>
      <trkpt lat="47.61646" lon="-2.73388">
        <ele>10.55</ele>
        <time>2023-05-13T16:22:09.000Z</time>
      </trkpt>
      <trkpt lat="47.61654" lon="-2.73413">
        <ele>9.33</ele>
        <time>2023-05-13T16:22:23.000Z</time>
      </trkpt>
      <trkpt lat="47.61664" lon="-2.73436">
        <ele>10.08</ele>
        <time>2023-05-13T16:22:37.000Z</time>
      </trkpt>
      <trkpt lat="47.6167" lon="-2.73462">
        <ele>13.28</ele>
        <time>2023-05-13T16:22:51.000Z</time>
      </trkpt>
      <trkpt lat="47.61669" lon="-2.73489">
        <ele>11.44</ele>
        <time>2023-05-13T16:23:06.000Z</time>
      </trkpt>
      <trkpt lat="47.61683" lon="-2.73507">
        <ele>10.54</ele>
        <time>2023-05-13T16:23:21.000Z</time>
      </trkpt>
      <trkpt lat="47.61697" lon="-2.73524">
        <ele>10.52</ele>
        <time>2023-05-13T16:23:36.000Z</time>
      </trkpt>
      <trkpt lat="47.61711" lon="-2.73543">
        <ele>10.02</ele>
        <time>2023-05-13T16:23:50.000Z</time>
      </trkpt>
      <trkpt lat="47.61727" lon="-2.73556">
        <ele>10.54</ele>
        <time>2023-05-13T16:24:04.000Z</time>
      </trkpt>
      <trkpt lat="47.61742" lon="-2.73576">
        <ele>12.17</ele>
        <time>2023-05-13T16:24:19.000Z</time>
      </trkpt>
      <trkpt lat="47.61756" lon="-2.73591">
        <ele>10.55</ele>
        <time>2023-05-13T16:24:34.000Z</time>
      </trkpt>
      <trkpt lat="47.61774" lon="-2.73602">
        <ele>9.36</ele>
        <time>2023-05-13T16:24:49.000Z</time>
      </trkpt>
      <trkpt lat="47.61792" lon="-2.73614">
        <ele>12.32</ele>
        <time>2023-05-13T16:25:04.000Z</time>
      </trkpt>
      <trkpt lat="47.61806" lon="-2.7363">
        <ele>14.58</ele>
        <time>2023-05-13T16:25:17.000Z</time>
      </trkpt>
      <trkpt lat="47.61822" lon="-2.73644">
        <ele>13.64</ele>
        <time>2023-05-13T16:25:32.000Z</time>
      </trkpt>
      <trkpt lat="47.61839" lon="-2.73658">
        <ele>12.42</ele>
        <time>2023-05-13T16:25:49.000Z</time>
      </trkpt>
      <trkpt lat="47.61854" lon="-2.73672">
        <ele>14.02</ele>
        <time>2023-05-13T16:26:02.000Z</time>
      </trkpt>
      <trkpt lat="47.61872" lon="-2.73681">
        <ele>17</ele>
        <time>2023-05-13T16:26:19.000Z</time>
      </trkpt>
      <trkpt lat="47.61883" lon="-2.73703">
        <ele>16.08</ele>
        <time>2023-05-13T16:26:33.000Z</time>
      </trkpt>
      <trkpt lat="47.61886" lon="-2.73729">
        <ele>20.06</ele>
        <time>2023-05-13T16:26:50.000Z</time>
      </trkpt>
      <trkpt lat="47.61903" lon="-2.73741">
        <ele>20.94</ele>
        <time>2023-05-13T16:27:09.000Z</time>
      </trkpt>
      <trkpt lat="47.6192" lon="-2.73735">
        <ele>23.97</ele>
        <time>2023-05-13T16:27:23.000Z</time>
      </trkpt>
      <trkpt lat="47.61935" lon="-2.7375">
        <ele>21.67</ele>
        <time>2023-05-13T16:27:36.000Z</time>
      </trkpt>
    </trkseg>
  </trk>
</gpx>